<?xml version="1.0" encoding="UTF-8" standalone="no" ?>
<gpx xmlns="http://www.topografix.com/GPX/1/1" xmlns:xsi="http://www.w3.org/2001/XMLSchema-instance" xsi:schemaLocation="http://www.topografix.com/GPX/1/1 http://www.topografix.com/GPX/1/1/gpx.xsd" version="1.1" creator="VisuGPX - https://www.visugpx.com">
  <metadata>
    <name>RR #90</name>
  </metadata>
  <trk>
    <name><![CDATA[RR #90]]></name>
    <extensions>
      <line xmlns="http://www.topografix.com/GPX/gpx_style/0/2">
        <color>0000FF</color>
        <width>4</width>
      </line>
    </extensions>
    <trkseg>
      <trkpt lat="47.20621" lon="-1.54501">
        <ele>8.5</ele>
        <time>2022-08-24T12:22:48Z</time>
      </trkpt>
      <trkpt lat="47.20658" lon="-1.54156">
        <ele>10.5</ele>
        <time>2022-08-24T12:23:23Z</time>
      </trkpt>
      <trkpt lat="47.20673" lon="-1.53954">
        <ele>8.4</ele>
        <time>2022-08-24T12:23:40Z</time>
      </trkpt>
      <trkpt lat="47.20599" lon="-1.53893">
        <ele>8</ele>
        <time>2022-08-24T12:23:50Z</time>
      </trkpt>
      <trkpt lat="47.20496" lon="-1.53809">
        <ele>10</ele>
        <time>2022-08-24T12:24:07Z</time>
      </trkpt>
      <trkpt lat="47.20488" lon="-1.53801">
        <ele>10.1</ele>
        <time>2022-08-24T12:24:09Z</time>
      </trkpt>
      <trkpt lat="47.20489" lon="-1.53788">
        <ele>10.2</ele>
        <time>2022-08-24T12:24:11Z</time>
      </trkpt>
      <trkpt lat="47.20377" lon="-1.53693">
        <ele>11.9</ele>
        <time>2022-08-24T12:24:30Z</time>
      </trkpt>
      <trkpt lat="47.20329" lon="-1.53653">
        <ele>11.6</ele>
        <time>2022-08-24T12:24:37Z</time>
      </trkpt>
      <trkpt lat="47.20215" lon="-1.5356">
        <ele>6.4</ele>
        <time>2022-08-24T12:24:52Z</time>
      </trkpt>
      <trkpt lat="47.20131" lon="-1.53491">
        <ele>4.6</ele>
        <time>2022-08-24T12:25:03Z</time>
      </trkpt>
      <trkpt lat="47.19917" lon="-1.5332">
        <ele>11.5</ele>
        <time>2022-08-24T12:25:36Z</time>
      </trkpt>
      <trkpt lat="47.1989" lon="-1.53317">
        <ele>12.1</ele>
        <time>2022-08-24T12:25:41Z</time>
      </trkpt>
      <trkpt lat="47.19886" lon="-1.53302">
        <ele>12.2</ele>
        <time>2022-08-24T12:25:43Z</time>
      </trkpt>
      <trkpt lat="47.19894" lon="-1.53281">
        <ele>12.4</ele>
        <time>2022-08-24T12:25:46Z</time>
      </trkpt>
      <trkpt lat="47.1994" lon="-1.53254">
        <ele>12.6</ele>
        <time>2022-08-24T12:25:53Z</time>
      </trkpt>
      <trkpt lat="47.19965" lon="-1.53218">
        <ele>12.4</ele>
        <time>2022-08-24T12:25:58Z</time>
      </trkpt>
      <trkpt lat="47.19976" lon="-1.53214">
        <ele>12.2</ele>
        <time>2022-08-24T12:26:00Z</time>
      </trkpt>
      <trkpt lat="47.19985" lon="-1.53222">
        <ele>12</ele>
        <time>2022-08-24T12:26:02Z</time>
      </trkpt>
      <trkpt lat="47.19989" lon="-1.5326">
        <ele>11.3</ele>
        <time>2022-08-24T12:26:06Z</time>
      </trkpt>
      <trkpt lat="47.20002" lon="-1.53285">
        <ele>10.7</ele>
        <time>2022-08-24T12:26:09Z</time>
      </trkpt>
      <trkpt lat="47.2006" lon="-1.53326">
        <ele>8.5</ele>
        <time>2022-08-24T12:26:17Z</time>
      </trkpt>
      <trkpt lat="47.20082" lon="-1.53309">
        <ele>8</ele>
        <time>2022-08-24T12:26:20Z</time>
      </trkpt>
      <trkpt lat="47.20095" lon="-1.53276">
        <ele>7.8</ele>
        <time>2022-08-24T12:26:23Z</time>
      </trkpt>
      <trkpt lat="47.20122" lon="-1.5316">
        <ele>8.4</ele>
        <time>2022-08-24T12:26:33Z</time>
      </trkpt>
      <trkpt lat="47.20147" lon="-1.531">
        <ele>8.9</ele>
        <time>2022-08-24T12:26:39Z</time>
      </trkpt>
      <trkpt lat="47.20167" lon="-1.53063">
        <ele>9</ele>
        <time>2022-08-24T12:26:43Z</time>
      </trkpt>
      <trkpt lat="47.20217" lon="-1.53">
        <ele>8.4</ele>
        <time>2022-08-24T12:26:51Z</time>
      </trkpt>
      <trkpt lat="47.20232" lon="-1.52971">
        <ele>8.2</ele>
        <time>2022-08-24T12:26:54Z</time>
      </trkpt>
      <trkpt lat="47.20277" lon="-1.52884">
        <ele>8.5</ele>
        <time>2022-08-24T12:27:03Z</time>
      </trkpt>
      <trkpt lat="47.20361" lon="-1.52718">
        <ele>13.4</ele>
        <time>2022-08-24T12:27:23Z</time>
      </trkpt>
      <trkpt lat="47.20393" lon="-1.52641">
        <ele>14.6</ele>
        <time>2022-08-24T12:27:32Z</time>
      </trkpt>
      <trkpt lat="47.20411" lon="-1.52593">
        <ele>13.8</ele>
        <time>2022-08-24T12:27:37Z</time>
      </trkpt>
      <trkpt lat="47.20461" lon="-1.52433">
        <ele>8.6</ele>
        <time>2022-08-24T12:27:51Z</time>
      </trkpt>
      <trkpt lat="47.2048" lon="-1.5235">
        <ele>7.2</ele>
        <time>2022-08-24T12:27:58Z</time>
      </trkpt>
      <trkpt lat="47.20496" lon="-1.52315">
        <ele>6.9</ele>
        <time>2022-08-24T12:28:02Z</time>
      </trkpt>
      <trkpt lat="47.20499" lon="-1.52273">
        <ele>6.7</ele>
        <time>2022-08-24T12:28:07Z</time>
      </trkpt>
      <trkpt lat="47.20507" lon="-1.52267">
        <ele>6.6</ele>
        <time>2022-08-24T12:28:09Z</time>
      </trkpt>
      <trkpt lat="47.20514" lon="-1.52272">
        <ele>6.6</ele>
        <time>2022-08-24T12:28:11Z</time>
      </trkpt>
      <trkpt lat="47.20524" lon="-1.52259">
        <ele>6.6</ele>
        <time>2022-08-24T12:28:14Z</time>
      </trkpt>
      <trkpt lat="47.20659" lon="-1.52026">
        <ele>7.7</ele>
        <time>2022-08-24T12:28:42Z</time>
      </trkpt>
      <trkpt lat="47.20715" lon="-1.5192">
        <ele>7</ele>
        <time>2022-08-24T12:28:53Z</time>
      </trkpt>
      <trkpt lat="47.2074" lon="-1.51856">
        <ele>6.8</ele>
        <time>2022-08-24T12:28:59Z</time>
      </trkpt>
      <trkpt lat="47.20742" lon="-1.51819">
        <ele>7</ele>
        <time>2022-08-24T12:29:02Z</time>
      </trkpt>
      <trkpt lat="47.2077" lon="-1.51748">
        <ele>8.1</ele>
        <time>2022-08-24T12:29:09Z</time>
      </trkpt>
      <trkpt lat="47.20796" lon="-1.5162">
        <ele>7.4</ele>
        <time>2022-08-24T12:29:20Z</time>
      </trkpt>
      <trkpt lat="47.20804" lon="-1.51533">
        <ele>5.3</ele>
        <time>2022-08-24T12:29:27Z</time>
      </trkpt>
      <trkpt lat="47.20834" lon="-1.51377">
        <ele>5.3</ele>
        <time>2022-08-24T12:29:42Z</time>
      </trkpt>
      <trkpt lat="47.20834" lon="-1.5137">
        <ele>5.3</ele>
        <time>2022-08-24T12:29:43Z</time>
      </trkpt>
      <trkpt lat="47.20825" lon="-1.51363">
        <ele>5.5</ele>
        <time>2022-08-24T12:29:45Z</time>
      </trkpt>
      <trkpt lat="47.20825" lon="-1.51352">
        <ele>5.6</ele>
        <time>2022-08-24T12:29:47Z</time>
      </trkpt>
      <trkpt lat="47.20841" lon="-1.51351">
        <ele>5.9</ele>
        <time>2022-08-24T12:29:51Z</time>
      </trkpt>
      <trkpt lat="47.20886" lon="-1.5125">
        <ele>7.7</ele>
        <time>2022-08-24T12:30:04Z</time>
      </trkpt>
      <trkpt lat="47.20927" lon="-1.5114">
        <ele>9</ele>
        <time>2022-08-24T12:30:16Z</time>
      </trkpt>
      <trkpt lat="47.20938" lon="-1.51099">
        <ele>9.1</ele>
        <time>2022-08-24T12:30:20Z</time>
      </trkpt>
      <trkpt lat="47.20947" lon="-1.51018">
        <ele>8.7</ele>
        <time>2022-08-24T12:30:27Z</time>
      </trkpt>
      <trkpt lat="47.20966" lon="-1.50939">
        <ele>8.5</ele>
        <time>2022-08-24T12:30:34Z</time>
      </trkpt>
      <trkpt lat="47.20993" lon="-1.50676">
        <ele>10.3</ele>
        <time>2022-08-24T12:30:56Z</time>
      </trkpt>
      <trkpt lat="47.20995" lon="-1.50474">
        <ele>5.9</ele>
        <time>2022-08-24T12:31:12Z</time>
      </trkpt>
      <trkpt lat="47.20994" lon="-1.50326">
        <ele>6.6</ele>
        <time>2022-08-24T12:31:24Z</time>
      </trkpt>
      <trkpt lat="47.20997" lon="-1.50268">
        <ele>6.8</ele>
        <time>2022-08-24T12:31:30Z</time>
      </trkpt>
      <trkpt lat="47.21003" lon="-1.5024">
        <ele>6.9</ele>
        <time>2022-08-24T12:31:34Z</time>
      </trkpt>
      <trkpt lat="47.20996" lon="-1.50229">
        <ele>6.9</ele>
        <time>2022-08-24T12:31:37Z</time>
      </trkpt>
      <trkpt lat="47.21011" lon="-1.50184">
        <ele>6.9</ele>
        <time>2022-08-24T12:31:43Z</time>
      </trkpt>
      <trkpt lat="47.21059" lon="-1.49978">
        <ele>5.4</ele>
        <time>2022-08-24T12:32:02Z</time>
      </trkpt>
      <trkpt lat="47.21097" lon="-1.49816">
        <ele>7.2</ele>
        <time>2022-08-24T12:32:16Z</time>
      </trkpt>
      <trkpt lat="47.21122" lon="-1.49594">
        <ele>5</ele>
        <time>2022-08-24T12:32:36Z</time>
      </trkpt>
      <trkpt lat="47.2112" lon="-1.49583">
        <ele>4.9</ele>
        <time>2022-08-24T12:32:38Z</time>
      </trkpt>
      <trkpt lat="47.21112" lon="-1.49581">
        <ele>4.9</ele>
        <time>2022-08-24T12:32:40Z</time>
      </trkpt>
      <trkpt lat="47.21108" lon="-1.49568">
        <ele>4.9</ele>
        <time>2022-08-24T12:32:42Z</time>
      </trkpt>
      <trkpt lat="47.21113" lon="-1.49558">
        <ele>4.9</ele>
        <time>2022-08-24T12:32:44Z</time>
      </trkpt>
      <trkpt lat="47.21123" lon="-1.49558">
        <ele>5</ele>
        <time>2022-08-24T12:32:46Z</time>
      </trkpt>
      <trkpt lat="47.2112" lon="-1.49492">
        <ele>5.3</ele>
        <time>2022-08-24T12:32:53Z</time>
      </trkpt>
      <trkpt lat="47.21131" lon="-1.49248">
        <ele>7.2</ele>
        <time>2022-08-24T12:33:15Z</time>
      </trkpt>
      <trkpt lat="47.21137" lon="-1.49178">
        <ele>6.8</ele>
        <time>2022-08-24T12:33:21Z</time>
      </trkpt>
      <trkpt lat="47.21149" lon="-1.49101">
        <ele>6</ele>
        <time>2022-08-24T12:33:28Z</time>
      </trkpt>
      <trkpt lat="47.21134" lon="-1.49091">
        <ele>5.7</ele>
        <time>2022-08-24T12:33:31Z</time>
      </trkpt>
      <trkpt lat="47.21133" lon="-1.49074">
        <ele>5.6</ele>
        <time>2022-08-24T12:33:33Z</time>
      </trkpt>
      <trkpt lat="47.21139" lon="-1.49064">
        <ele>5.4</ele>
        <time>2022-08-24T12:33:35Z</time>
      </trkpt>
      <trkpt lat="47.21148" lon="-1.49063">
        <ele>5.3</ele>
        <time>2022-08-24T12:33:37Z</time>
      </trkpt>
      <trkpt lat="47.21151" lon="-1.49029">
        <ele>5.3</ele>
        <time>2022-08-24T12:33:41Z</time>
      </trkpt>
      <trkpt lat="47.2119" lon="-1.4882">
        <ele>6.8</ele>
        <time>2022-08-24T12:34:01Z</time>
      </trkpt>
      <trkpt lat="47.21243" lon="-1.48604">
        <ele>5.5</ele>
        <time>2022-08-24T12:34:20Z</time>
      </trkpt>
      <trkpt lat="47.21256" lon="-1.48528">
        <ele>4.4</ele>
        <time>2022-08-24T12:34:27Z</time>
      </trkpt>
      <trkpt lat="47.21265" lon="-1.48517">
        <ele>4.2</ele>
        <time>2022-08-24T12:34:29Z</time>
      </trkpt>
      <trkpt lat="47.21285" lon="-1.48517">
        <ele>3.8</ele>
        <time>2022-08-24T12:34:32Z</time>
      </trkpt>
      <trkpt lat="47.21291" lon="-1.48512">
        <ele>3.6</ele>
        <time>2022-08-24T12:34:33Z</time>
      </trkpt>
      <trkpt lat="47.21302" lon="-1.48459">
        <ele>3.3</ele>
        <time>2022-08-24T12:34:38Z</time>
      </trkpt>
      <trkpt lat="47.21334" lon="-1.48352">
        <ele>3.9</ele>
        <time>2022-08-24T12:34:48Z</time>
      </trkpt>
      <trkpt lat="47.2139" lon="-1.48192">
        <ele>5.8</ele>
        <time>2022-08-24T12:35:04Z</time>
      </trkpt>
      <trkpt lat="47.21417" lon="-1.48137">
        <ele>6.2</ele>
        <time>2022-08-24T12:35:10Z</time>
      </trkpt>
      <trkpt lat="47.21471" lon="-1.48051">
        <ele>6.5</ele>
        <time>2022-08-24T12:35:20Z</time>
      </trkpt>
      <trkpt lat="47.21559" lon="-1.47956">
        <ele>5</ele>
        <time>2022-08-24T12:35:33Z</time>
      </trkpt>
      <trkpt lat="47.21631" lon="-1.47887">
        <ele>3.1</ele>
        <time>2022-08-24T12:35:43Z</time>
      </trkpt>
      <trkpt lat="47.21759" lon="-1.47767">
        <ele>4.1</ele>
        <time>2022-08-24T12:36:01Z</time>
      </trkpt>
      <trkpt lat="47.21844" lon="-1.47701">
        <ele>5.2</ele>
        <time>2022-08-24T12:36:13Z</time>
      </trkpt>
      <trkpt lat="47.22092" lon="-1.47469">
        <ele>5.7</ele>
        <time>2022-08-24T12:36:49Z</time>
      </trkpt>
      <trkpt lat="47.22208" lon="-1.47373">
        <ele>6</ele>
        <time>2022-08-24T12:37:05Z</time>
      </trkpt>
      <trkpt lat="47.22276" lon="-1.47326">
        <ele>5.6</ele>
        <time>2022-08-24T12:37:14Z</time>
      </trkpt>
      <trkpt lat="47.22357" lon="-1.4726">
        <ele>5.9</ele>
        <time>2022-08-24T12:37:25Z</time>
      </trkpt>
      <trkpt lat="47.2247" lon="-1.47149">
        <ele>4.6</ele>
        <time>2022-08-24T12:37:41Z</time>
      </trkpt>
      <trkpt lat="47.22553" lon="-1.47121">
        <ele>3.9</ele>
        <time>2022-08-24T12:37:51Z</time>
      </trkpt>
      <trkpt lat="47.22592" lon="-1.47096">
        <ele>3.8</ele>
        <time>2022-08-24T12:37:56Z</time>
      </trkpt>
      <trkpt lat="47.22643" lon="-1.47017">
        <ele>4.3</ele>
        <time>2022-08-24T12:38:05Z</time>
      </trkpt>
      <trkpt lat="47.22677" lon="-1.46984">
        <ele>4.6</ele>
        <time>2022-08-24T12:38:10Z</time>
      </trkpt>
      <trkpt lat="47.22723" lon="-1.4696">
        <ele>4.9</ele>
        <time>2022-08-24T12:38:16Z</time>
      </trkpt>
      <trkpt lat="47.22755" lon="-1.46954">
        <ele>5</ele>
        <time>2022-08-24T12:38:20Z</time>
      </trkpt>
      <trkpt lat="47.22795" lon="-1.46962">
        <ele>4.9</ele>
        <time>2022-08-24T12:38:25Z</time>
      </trkpt>
      <trkpt lat="47.22883" lon="-1.47001">
        <ele>4.3</ele>
        <time>2022-08-24T12:38:36Z</time>
      </trkpt>
      <trkpt lat="47.22906" lon="-1.46995">
        <ele>4.3</ele>
        <time>2022-08-24T12:38:39Z</time>
      </trkpt>
      <trkpt lat="47.22914" lon="-1.46977">
        <ele>4.5</ele>
        <time>2022-08-24T12:38:41Z</time>
      </trkpt>
      <trkpt lat="47.22946" lon="-1.46837">
        <ele>6.2</ele>
        <time>2022-08-24T12:38:55Z</time>
      </trkpt>
      <trkpt lat="47.22965" lon="-1.46822">
        <ele>6.5</ele>
        <time>2022-08-24T12:38:59Z</time>
      </trkpt>
      <trkpt lat="47.22987" lon="-1.46773">
        <ele>6.7</ele>
        <time>2022-08-24T12:39:05Z</time>
      </trkpt>
      <trkpt lat="47.23041" lon="-1.46734">
        <ele>6.3</ele>
        <time>2022-08-24T12:39:13Z</time>
      </trkpt>
      <trkpt lat="47.23045" lon="-1.46725">
        <ele>6.2</ele>
        <time>2022-08-24T12:39:14Z</time>
      </trkpt>
      <trkpt lat="47.23048" lon="-1.46691">
        <ele>5.9</ele>
        <time>2022-08-24T12:39:17Z</time>
      </trkpt>
      <trkpt lat="47.23073" lon="-1.46629">
        <ele>5</ele>
        <time>2022-08-24T12:39:23Z</time>
      </trkpt>
      <trkpt lat="47.23167" lon="-1.46522">
        <ele>3.7</ele>
        <time>2022-08-24T12:39:37Z</time>
      </trkpt>
      <trkpt lat="47.23415" lon="-1.46204">
        <ele>5.7</ele>
        <time>2022-08-24T12:40:17Z</time>
      </trkpt>
      <trkpt lat="47.23539" lon="-1.46077">
        <ele>6.9</ele>
        <time>2022-08-24T12:40:36Z</time>
      </trkpt>
      <trkpt lat="47.23635" lon="-1.46013">
        <ele>6.3</ele>
        <time>2022-08-24T12:40:49Z</time>
      </trkpt>
      <trkpt lat="47.23765" lon="-1.45981">
        <ele>7.1</ele>
        <time>2022-08-24T12:41:05Z</time>
      </trkpt>
      <trkpt lat="47.23813" lon="-1.45962">
        <ele>6.9</ele>
        <time>2022-08-24T12:41:11Z</time>
      </trkpt>
      <trkpt lat="47.23942" lon="-1.45928">
        <ele>2.4</ele>
        <time>2022-08-24T12:41:26Z</time>
      </trkpt>
      <trkpt lat="47.23964" lon="-1.45908">
        <ele>2.6</ele>
        <time>2022-08-24T12:41:29Z</time>
      </trkpt>
      <trkpt lat="47.24041" lon="-1.45791">
        <ele>4.9</ele>
        <time>2022-08-24T12:41:43Z</time>
      </trkpt>
      <trkpt lat="47.24115" lon="-1.45663">
        <ele>6.3</ele>
        <time>2022-08-24T12:41:58Z</time>
      </trkpt>
      <trkpt lat="47.24155" lon="-1.45557">
        <ele>4.5</ele>
        <time>2022-08-24T12:42:08Z</time>
      </trkpt>
      <trkpt lat="47.24242" lon="-1.45279">
        <ele>5.9</ele>
        <time>2022-08-24T12:42:33Z</time>
      </trkpt>
      <trkpt lat="47.24256" lon="-1.45249">
        <ele>5.7</ele>
        <time>2022-08-24T12:42:36Z</time>
      </trkpt>
      <trkpt lat="47.24282" lon="-1.44981">
        <ele>5.4</ele>
        <time>2022-08-24T12:42:58Z</time>
      </trkpt>
      <trkpt lat="47.24314" lon="-1.44608">
        <ele>2.6</ele>
        <time>2022-08-24T12:43:28Z</time>
      </trkpt>
      <trkpt lat="47.24332" lon="-1.44338">
        <ele>4.2</ele>
        <time>2022-08-24T12:43:51Z</time>
      </trkpt>
      <trkpt lat="47.24339" lon="-1.44299">
        <ele>4.3</ele>
        <time>2022-08-24T12:43:56Z</time>
      </trkpt>
      <trkpt lat="47.24341" lon="-1.44223">
        <ele>4.7</ele>
        <time>2022-08-24T12:44:04Z</time>
      </trkpt>
      <trkpt lat="47.24365" lon="-1.44141">
        <ele>4.8</ele>
        <time>2022-08-24T12:44:12Z</time>
      </trkpt>
      <trkpt lat="47.24446" lon="-1.43988">
        <ele>4.1</ele>
        <time>2022-08-24T12:44:28Z</time>
      </trkpt>
      <trkpt lat="47.24472" lon="-1.43924">
        <ele>4</ele>
        <time>2022-08-24T12:44:34Z</time>
      </trkpt>
      <trkpt lat="47.24536" lon="-1.43724">
        <ele>4</ele>
        <time>2022-08-24T12:44:52Z</time>
      </trkpt>
      <trkpt lat="47.24612" lon="-1.43632">
        <ele>5</ele>
        <time>2022-08-24T12:45:04Z</time>
      </trkpt>
      <trkpt lat="47.24683" lon="-1.43566">
        <ele>4.4</ele>
        <time>2022-08-24T12:45:14Z</time>
      </trkpt>
      <trkpt lat="47.24722" lon="-1.4347">
        <ele>3.2</ele>
        <time>2022-08-24T12:45:23Z</time>
      </trkpt>
      <trkpt lat="47.2477" lon="-1.43398">
        <ele>3.1</ele>
        <time>2022-08-24T12:45:31Z</time>
      </trkpt>
      <trkpt lat="47.24802" lon="-1.43362">
        <ele>3.8</ele>
        <time>2022-08-24T12:45:36Z</time>
      </trkpt>
      <trkpt lat="47.24885" lon="-1.43306">
        <ele>6.4</ele>
        <time>2022-08-24T12:45:48Z</time>
      </trkpt>
      <trkpt lat="47.25024" lon="-1.43212">
        <ele>5.1</ele>
        <time>2022-08-24T12:46:07Z</time>
      </trkpt>
      <trkpt lat="47.25072" lon="-1.43164">
        <ele>5.4</ele>
        <time>2022-08-24T12:46:14Z</time>
      </trkpt>
      <trkpt lat="47.25209" lon="-1.42999">
        <ele>4.5</ele>
        <time>2022-08-24T12:46:35Z</time>
      </trkpt>
      <trkpt lat="47.25338" lon="-1.42915">
        <ele>5.6</ele>
        <time>2022-08-24T12:46:52Z</time>
      </trkpt>
      <trkpt lat="47.25358" lon="-1.42897">
        <ele>5.4</ele>
        <time>2022-08-24T12:46:55Z</time>
      </trkpt>
      <trkpt lat="47.25369" lon="-1.42873">
        <ele>5.2</ele>
        <time>2022-08-24T12:46:58Z</time>
      </trkpt>
      <trkpt lat="47.25428" lon="-1.42837">
        <ele>4.9</ele>
        <time>2022-08-24T12:47:06Z</time>
      </trkpt>
      <trkpt lat="47.25522" lon="-1.42763">
        <ele>5.6</ele>
        <time>2022-08-24T12:47:19Z</time>
      </trkpt>
      <trkpt lat="47.25544" lon="-1.42756">
        <ele>5.7</ele>
        <time>2022-08-24T12:47:22Z</time>
      </trkpt>
      <trkpt lat="47.25697" lon="-1.42633">
        <ele>6.6</ele>
        <time>2022-08-24T12:47:44Z</time>
      </trkpt>
      <trkpt lat="47.25715" lon="-1.42607">
        <ele>6.6</ele>
        <time>2022-08-24T12:47:48Z</time>
      </trkpt>
      <trkpt lat="47.25728" lon="-1.42612">
        <ele>6.5</ele>
        <time>2022-08-24T12:47:51Z</time>
      </trkpt>
      <trkpt lat="47.25731" lon="-1.42628">
        <ele>6.4</ele>
        <time>2022-08-24T12:47:53Z</time>
      </trkpt>
      <trkpt lat="47.25806" lon="-1.42811">
        <ele>3.1</ele>
        <time>2022-08-24T12:48:12Z</time>
      </trkpt>
      <trkpt lat="47.25873" lon="-1.42972">
        <ele>7.2</ele>
        <time>2022-08-24T12:48:28Z</time>
      </trkpt>
      <trkpt lat="47.25933" lon="-1.43117">
        <ele>7.4</ele>
        <time>2022-08-24T12:48:43Z</time>
      </trkpt>
      <trkpt lat="47.26183" lon="-1.43479">
        <ele>5.1</ele>
        <time>2022-08-24T12:49:25Z</time>
      </trkpt>
      <trkpt lat="47.26379" lon="-1.43763">
        <ele>9.6</ele>
        <time>2022-08-24T12:49:59Z</time>
      </trkpt>
      <trkpt lat="47.26499" lon="-1.43936">
        <ele>9.3</ele>
        <time>2022-08-24T12:50:20Z</time>
      </trkpt>
      <trkpt lat="47.2655" lon="-1.43995">
        <ele>9.8</ele>
        <time>2022-08-24T12:50:29Z</time>
      </trkpt>
      <trkpt lat="47.26594" lon="-1.44063">
        <ele>10.9</ele>
        <time>2022-08-24T12:50:42Z</time>
      </trkpt>
      <trkpt lat="47.26641" lon="-1.44114">
        <ele>11.7</ele>
        <time>2022-08-24T12:50:52Z</time>
      </trkpt>
      <trkpt lat="47.26674" lon="-1.44126">
        <ele>11.8</ele>
        <time>2022-08-24T12:50:59Z</time>
      </trkpt>
      <trkpt lat="47.26699" lon="-1.44126">
        <ele>11.9</ele>
        <time>2022-08-24T12:51:03Z</time>
      </trkpt>
      <trkpt lat="47.26771" lon="-1.44168">
        <ele>12.6</ele>
        <time>2022-08-24T12:51:14Z</time>
      </trkpt>
      <trkpt lat="47.26881" lon="-1.44286">
        <ele>18.3</ele>
        <time>2022-08-24T12:51:35Z</time>
      </trkpt>
      <trkpt lat="47.2692" lon="-1.44311">
        <ele>19.7</ele>
        <time>2022-08-24T12:51:42Z</time>
      </trkpt>
      <trkpt lat="47.26932" lon="-1.44312">
        <ele>20</ele>
        <time>2022-08-24T12:51:44Z</time>
      </trkpt>
      <trkpt lat="47.26953" lon="-1.44359">
        <ele>21</ele>
        <time>2022-08-24T12:51:50Z</time>
      </trkpt>
      <trkpt lat="47.26977" lon="-1.44392">
        <ele>22.1</ele>
        <time>2022-08-24T12:51:55Z</time>
      </trkpt>
      <trkpt lat="47.27079" lon="-1.44448">
        <ele>27.9</ele>
        <time>2022-08-24T12:52:14Z</time>
      </trkpt>
      <trkpt lat="47.27113" lon="-1.44457">
        <ele>28.8</ele>
        <time>2022-08-24T12:52:20Z</time>
      </trkpt>
      <trkpt lat="47.27213" lon="-1.44458">
        <ele>29.7</ele>
        <time>2022-08-24T12:52:34Z</time>
      </trkpt>
      <trkpt lat="47.27362" lon="-1.44458">
        <ele>27.8</ele>
        <time>2022-08-24T12:52:52Z</time>
      </trkpt>
      <trkpt lat="47.27452" lon="-1.44418">
        <ele>27.1</ele>
        <time>2022-08-24T12:53:03Z</time>
      </trkpt>
      <trkpt lat="47.27474" lon="-1.44401">
        <ele>27</ele>
        <time>2022-08-24T12:53:06Z</time>
      </trkpt>
      <trkpt lat="47.27553" lon="-1.44287">
        <ele>26.6</ele>
        <time>2022-08-24T12:53:19Z</time>
      </trkpt>
      <trkpt lat="47.27595" lon="-1.44284">
        <ele>26</ele>
        <time>2022-08-24T12:53:24Z</time>
      </trkpt>
      <trkpt lat="47.27638" lon="-1.44295">
        <ele>25.4</ele>
        <time>2022-08-24T12:53:29Z</time>
      </trkpt>
      <trkpt lat="47.27718" lon="-1.44338">
        <ele>24.9</ele>
        <time>2022-08-24T12:53:39Z</time>
      </trkpt>
      <trkpt lat="47.27815" lon="-1.44352">
        <ele>26.5</ele>
        <time>2022-08-24T12:53:51Z</time>
      </trkpt>
      <trkpt lat="47.27948" lon="-1.4443">
        <ele>27.1</ele>
        <time>2022-08-24T12:54:09Z</time>
      </trkpt>
      <trkpt lat="47.28011" lon="-1.44457">
        <ele>27</ele>
        <time>2022-08-24T12:54:17Z</time>
      </trkpt>
      <trkpt lat="47.28593" lon="-1.44499">
        <ele>25.3</ele>
        <time>2022-08-24T12:55:26Z</time>
      </trkpt>
      <trkpt lat="47.28659" lon="-1.44515">
        <ele>25.4</ele>
        <time>2022-08-24T12:55:34Z</time>
      </trkpt>
      <trkpt lat="47.28677" lon="-1.44537">
        <ele>25.4</ele>
        <time>2022-08-24T12:55:37Z</time>
      </trkpt>
      <trkpt lat="47.28692" lon="-1.44547">
        <ele>25.5</ele>
        <time>2022-08-24T12:55:39Z</time>
      </trkpt>
      <trkpt lat="47.28699" lon="-1.44545">
        <ele>25.5</ele>
        <time>2022-08-24T12:55:40Z</time>
      </trkpt>
      <trkpt lat="47.28749" lon="-1.44483">
        <ele>25.8</ele>
        <time>2022-08-24T12:55:48Z</time>
      </trkpt>
      <trkpt lat="47.28857" lon="-1.4443">
        <ele>26.3</ele>
        <time>2022-08-24T12:56:02Z</time>
      </trkpt>
      <trkpt lat="47.28878" lon="-1.44414">
        <ele>26.6</ele>
        <time>2022-08-24T12:56:05Z</time>
      </trkpt>
      <trkpt lat="47.28967" lon="-1.44283">
        <ele>29.8</ele>
        <time>2022-08-24T12:56:22Z</time>
      </trkpt>
      <trkpt lat="47.29109" lon="-1.44122">
        <ele>31.9</ele>
        <time>2022-08-24T12:56:47Z</time>
      </trkpt>
      <trkpt lat="47.29236" lon="-1.43991">
        <ele>37.7</ele>
        <time>2022-08-24T12:57:10Z</time>
      </trkpt>
      <trkpt lat="47.29283" lon="-1.4396">
        <ele>39</ele>
        <time>2022-08-24T12:57:18Z</time>
      </trkpt>
      <trkpt lat="47.29341" lon="-1.43966">
        <ele>40.8</ele>
        <time>2022-08-24T12:57:27Z</time>
      </trkpt>
      <trkpt lat="47.29365" lon="-1.43954">
        <ele>41.9</ele>
        <time>2022-08-24T12:57:31Z</time>
      </trkpt>
      <trkpt lat="47.29564" lon="-1.43744">
        <ele>49</ele>
        <time>2022-08-24T12:58:10Z</time>
      </trkpt>
      <trkpt lat="47.29713" lon="-1.43635">
        <ele>58.4</ele>
        <time>2022-08-24T12:58:41Z</time>
      </trkpt>
      <trkpt lat="47.29715" lon="-1.43627">
        <ele>58.6</ele>
        <time>2022-08-24T12:58:44Z</time>
      </trkpt>
      <trkpt lat="47.29719" lon="-1.43632">
        <ele>58.7</ele>
        <time>2022-08-24T12:58:46Z</time>
      </trkpt>
      <trkpt lat="47.29828" lon="-1.43547">
        <ele>63.1</ele>
        <time>2022-08-24T12:59:08Z</time>
      </trkpt>
      <trkpt lat="47.29835" lon="-1.43535">
        <ele>63.5</ele>
        <time>2022-08-24T12:59:10Z</time>
      </trkpt>
      <trkpt lat="47.29832" lon="-1.43508">
        <ele>63.9</ele>
        <time>2022-08-24T12:59:13Z</time>
      </trkpt>
      <trkpt lat="47.29844" lon="-1.43487">
        <ele>64.3</ele>
        <time>2022-08-24T12:59:16Z</time>
      </trkpt>
      <trkpt lat="47.2992" lon="-1.43451">
        <ele>65.2</ele>
        <time>2022-08-24T12:59:27Z</time>
      </trkpt>
      <trkpt lat="47.29944" lon="-1.43425">
        <ele>65.2</ele>
        <time>2022-08-24T12:59:31Z</time>
      </trkpt>
      <trkpt lat="47.2996" lon="-1.434">
        <ele>65.3</ele>
        <time>2022-08-24T12:59:34Z</time>
      </trkpt>
      <trkpt lat="47.29963" lon="-1.4338">
        <ele>65.4</ele>
        <time>2022-08-24T12:59:36Z</time>
      </trkpt>
      <trkpt lat="47.29935" lon="-1.43199">
        <ele>68.8</ele>
        <time>2022-08-24T12:59:54Z</time>
      </trkpt>
      <trkpt lat="47.29925" lon="-1.43173">
        <ele>68.9</ele>
        <time>2022-08-24T12:59:57Z</time>
      </trkpt>
      <trkpt lat="47.29912" lon="-1.43165">
        <ele>68.7</ele>
        <time>2022-08-24T12:59:59Z</time>
      </trkpt>
      <trkpt lat="47.29873" lon="-1.43171">
        <ele>68.3</ele>
        <time>2022-08-24T13:00:04Z</time>
      </trkpt>
      <trkpt lat="47.29843" lon="-1.43156">
        <ele>67.9</ele>
        <time>2022-08-24T13:00:08Z</time>
      </trkpt>
      <trkpt lat="47.29696" lon="-1.42951">
        <ele>66.4</ele>
        <time>2022-08-24T13:00:32Z</time>
      </trkpt>
      <trkpt lat="47.29679" lon="-1.42908">
        <ele>66.1</ele>
        <time>2022-08-24T13:00:36Z</time>
      </trkpt>
      <trkpt lat="47.29678" lon="-1.42883">
        <ele>66.1</ele>
        <time>2022-08-24T13:00:38Z</time>
      </trkpt>
      <trkpt lat="47.29703" lon="-1.42642">
        <ele>67.6</ele>
        <time>2022-08-24T13:01:00Z</time>
      </trkpt>
      <trkpt lat="47.29735" lon="-1.42316">
        <ele>81</ele>
        <time>2022-08-24T13:01:36Z</time>
      </trkpt>
      <trkpt lat="47.29751" lon="-1.42156">
        <ele>79.1</ele>
        <time>2022-08-24T13:01:52Z</time>
      </trkpt>
      <trkpt lat="47.29706" lon="-1.42024">
        <ele>76.8</ele>
        <time>2022-08-24T13:02:04Z</time>
      </trkpt>
      <trkpt lat="47.29682" lon="-1.4197">
        <ele>75.1</ele>
        <time>2022-08-24T13:02:09Z</time>
      </trkpt>
      <trkpt lat="47.29662" lon="-1.41943">
        <ele>74</ele>
        <time>2022-08-24T13:02:12Z</time>
      </trkpt>
      <trkpt lat="47.29547" lon="-1.41862">
        <ele>68.3</ele>
        <time>2022-08-24T13:02:26Z</time>
      </trkpt>
      <trkpt lat="47.29474" lon="-1.41813">
        <ele>68.7</ele>
        <time>2022-08-24T13:02:35Z</time>
      </trkpt>
      <trkpt lat="47.29376" lon="-1.41687">
        <ele>70.2</ele>
        <time>2022-08-24T13:02:51Z</time>
      </trkpt>
      <trkpt lat="47.29355" lon="-1.41684">
        <ele>70</ele>
        <time>2022-08-24T13:02:54Z</time>
      </trkpt>
      <trkpt lat="47.29354" lon="-1.41648">
        <ele>69.7</ele>
        <time>2022-08-24T13:02:58Z</time>
      </trkpt>
      <trkpt lat="47.29343" lon="-1.41644">
        <ele>69.5</ele>
        <time>2022-08-24T13:03:00Z</time>
      </trkpt>
      <trkpt lat="47.29303" lon="-1.41603">
        <ele>68.4</ele>
        <time>2022-08-24T13:03:07Z</time>
      </trkpt>
      <trkpt lat="47.29255" lon="-1.41537">
        <ele>66.1</ele>
        <time>2022-08-24T13:03:15Z</time>
      </trkpt>
      <trkpt lat="47.29228" lon="-1.41456">
        <ele>63</ele>
        <time>2022-08-24T13:03:22Z</time>
      </trkpt>
      <trkpt lat="47.29193" lon="-1.41227">
        <ele>50.7</ele>
        <time>2022-08-24T13:03:38Z</time>
      </trkpt>
      <trkpt lat="47.2917" lon="-1.41139">
        <ele>46.4</ele>
        <time>2022-08-24T13:03:44Z</time>
      </trkpt>
      <trkpt lat="47.29098" lon="-1.40911">
        <ele>33</ele>
        <time>2022-08-24T13:04:00Z</time>
      </trkpt>
      <trkpt lat="47.29076" lon="-1.40778">
        <ele>28.7</ele>
        <time>2022-08-24T13:04:09Z</time>
      </trkpt>
      <trkpt lat="47.291" lon="-1.4059">
        <ele>20.3</ele>
        <time>2022-08-24T13:04:22Z</time>
      </trkpt>
      <trkpt lat="47.29128" lon="-1.40512">
        <ele>17.3</ele>
        <time>2022-08-24T13:04:28Z</time>
      </trkpt>
      <trkpt lat="47.29125" lon="-1.4047">
        <ele>15.8</ele>
        <time>2022-08-24T13:04:31Z</time>
      </trkpt>
      <trkpt lat="47.29097" lon="-1.4043">
        <ele>13.9</ele>
        <time>2022-08-24T13:04:35Z</time>
      </trkpt>
      <trkpt lat="47.29047" lon="-1.40386">
        <ele>10.7</ele>
        <time>2022-08-24T13:04:41Z</time>
      </trkpt>
      <trkpt lat="47.28995" lon="-1.40354">
        <ele>8.4</ele>
        <time>2022-08-24T13:04:47Z</time>
      </trkpt>
      <trkpt lat="47.28995" lon="-1.40345">
        <ele>8.2</ele>
        <time>2022-08-24T13:04:48Z</time>
      </trkpt>
      <trkpt lat="47.29044" lon="-1.40265">
        <ele>7.2</ele>
        <time>2022-08-24T13:04:56Z</time>
      </trkpt>
      <trkpt lat="47.29121" lon="-1.40139">
        <ele>9.4</ele>
        <time>2022-08-24T13:05:10Z</time>
      </trkpt>
      <trkpt lat="47.29145" lon="-1.40082">
        <ele>10.3</ele>
        <time>2022-08-24T13:05:16Z</time>
      </trkpt>
      <trkpt lat="47.29185" lon="-1.39886">
        <ele>9.2</ele>
        <time>2022-08-24T13:05:33Z</time>
      </trkpt>
      <trkpt lat="47.29235" lon="-1.39727">
        <ele>7.3</ele>
        <time>2022-08-24T13:05:47Z</time>
      </trkpt>
      <trkpt lat="47.29236" lon="-1.39676">
        <ele>6.9</ele>
        <time>2022-08-24T13:05:52Z</time>
      </trkpt>
      <trkpt lat="47.29231" lon="-1.39652">
        <ele>6.9</ele>
        <time>2022-08-24T13:05:55Z</time>
      </trkpt>
      <trkpt lat="47.29238" lon="-1.39639">
        <ele>7</ele>
        <time>2022-08-24T13:05:57Z</time>
      </trkpt>
      <trkpt lat="47.29273" lon="-1.39612">
        <ele>7.3</ele>
        <time>2022-08-24T13:06:03Z</time>
      </trkpt>
      <trkpt lat="47.29282" lon="-1.39595">
        <ele>7.4</ele>
        <time>2022-08-24T13:06:05Z</time>
      </trkpt>
      <trkpt lat="47.29367" lon="-1.39341">
        <ele>10.7</ele>
        <time>2022-08-24T13:06:31Z</time>
      </trkpt>
      <trkpt lat="47.29385" lon="-1.39231">
        <ele>10.8</ele>
        <time>2022-08-24T13:06:41Z</time>
      </trkpt>
      <trkpt lat="47.29389" lon="-1.39172">
        <ele>10.8</ele>
        <time>2022-08-24T13:06:46Z</time>
      </trkpt>
      <trkpt lat="47.29392" lon="-1.39163">
        <ele>10.8</ele>
        <time>2022-08-24T13:06:47Z</time>
      </trkpt>
      <trkpt lat="47.29411" lon="-1.39149">
        <ele>10.8</ele>
        <time>2022-08-24T13:06:50Z</time>
      </trkpt>
      <trkpt lat="47.29416" lon="-1.39129">
        <ele>10.8</ele>
        <time>2022-08-24T13:06:52Z</time>
      </trkpt>
      <trkpt lat="47.29443" lon="-1.38946">
        <ele>11.2</ele>
        <time>2022-08-24T13:07:08Z</time>
      </trkpt>
      <trkpt lat="47.29439" lon="-1.38866">
        <ele>12</ele>
        <time>2022-08-24T13:07:15Z</time>
      </trkpt>
      <trkpt lat="47.29452" lon="-1.38862">
        <ele>12.4</ele>
        <time>2022-08-24T13:07:17Z</time>
      </trkpt>
      <trkpt lat="47.29504" lon="-1.38877">
        <ele>15.7</ele>
        <time>2022-08-24T13:07:26Z</time>
      </trkpt>
      <trkpt lat="47.29611" lon="-1.38922">
        <ele>27.6</ele>
        <time>2022-08-24T13:07:56Z</time>
      </trkpt>
      <trkpt lat="47.29645" lon="-1.38925">
        <ele>31</ele>
        <time>2022-08-24T13:08:06Z</time>
      </trkpt>
      <trkpt lat="47.29669" lon="-1.3892">
        <ele>33.5</ele>
        <time>2022-08-24T13:08:13Z</time>
      </trkpt>
      <trkpt lat="47.29697" lon="-1.3891">
        <ele>36.9</ele>
        <time>2022-08-24T13:08:22Z</time>
      </trkpt>
      <trkpt lat="47.29808" lon="-1.38844">
        <ele>51</ele>
        <time>2022-08-24T13:08:59Z</time>
      </trkpt>
      <trkpt lat="47.29899" lon="-1.38841">
        <ele>58.3</ele>
        <time>2022-08-24T13:09:24Z</time>
      </trkpt>
      <trkpt lat="47.30014" lon="-1.38736">
        <ele>64.3</ele>
        <time>2022-08-24T13:09:49Z</time>
      </trkpt>
      <trkpt lat="47.30125" lon="-1.38659">
        <ele>69.9</ele>
        <time>2022-08-24T13:10:10Z</time>
      </trkpt>
      <trkpt lat="47.30204" lon="-1.38602">
        <ele>71.6</ele>
        <time>2022-08-24T13:10:24Z</time>
      </trkpt>
      <trkpt lat="47.30333" lon="-1.38586">
        <ele>76.7</ele>
        <time>2022-08-24T13:10:44Z</time>
      </trkpt>
      <trkpt lat="47.30405" lon="-1.38622">
        <ele>77.1</ele>
        <time>2022-08-24T13:10:55Z</time>
      </trkpt>
      <trkpt lat="47.30468" lon="-1.38627">
        <ele>76.4</ele>
        <time>2022-08-24T13:11:03Z</time>
      </trkpt>
      <trkpt lat="47.30492" lon="-1.38622">
        <ele>76.3</ele>
        <time>2022-08-24T13:11:06Z</time>
      </trkpt>
      <trkpt lat="47.30688" lon="-1.38493">
        <ele>76.9</ele>
        <time>2022-08-24T13:11:32Z</time>
      </trkpt>
      <trkpt lat="47.30741" lon="-1.38438">
        <ele>77.1</ele>
        <time>2022-08-24T13:11:40Z</time>
      </trkpt>
      <trkpt lat="47.30876" lon="-1.38259">
        <ele>80.4</ele>
        <time>2022-08-24T13:12:04Z</time>
      </trkpt>
      <trkpt lat="47.30874" lon="-1.38169">
        <ele>80.8</ele>
        <time>2022-08-24T13:12:12Z</time>
      </trkpt>
      <trkpt lat="47.30879" lon="-1.38111">
        <ele>80.8</ele>
        <time>2022-08-24T13:12:17Z</time>
      </trkpt>
      <trkpt lat="47.3092" lon="-1.37908">
        <ele>78.5</ele>
        <time>2022-08-24T13:12:34Z</time>
      </trkpt>
      <trkpt lat="47.30939" lon="-1.37783">
        <ele>76.8</ele>
        <time>2022-08-24T13:12:44Z</time>
      </trkpt>
      <trkpt lat="47.30996" lon="-1.37579">
        <ele>73.5</ele>
        <time>2022-08-24T13:13:01Z</time>
      </trkpt>
      <trkpt lat="47.3102" lon="-1.37524">
        <ele>72.7</ele>
        <time>2022-08-24T13:13:06Z</time>
      </trkpt>
      <trkpt lat="47.31112" lon="-1.37437">
        <ele>67.4</ele>
        <time>2022-08-24T13:13:18Z</time>
      </trkpt>
      <trkpt lat="47.31152" lon="-1.3738">
        <ele>65.3</ele>
        <time>2022-08-24T13:13:24Z</time>
      </trkpt>
      <trkpt lat="47.31161" lon="-1.37356">
        <ele>64.8</ele>
        <time>2022-08-24T13:13:26Z</time>
      </trkpt>
      <trkpt lat="47.31158" lon="-1.37303">
        <ele>64.3</ele>
        <time>2022-08-24T13:13:30Z</time>
      </trkpt>
      <trkpt lat="47.31137" lon="-1.37231">
        <ele>63.4</ele>
        <time>2022-08-24T13:13:36Z</time>
      </trkpt>
      <trkpt lat="47.31134" lon="-1.37179">
        <ele>62.9</ele>
        <time>2022-08-24T13:13:40Z</time>
      </trkpt>
      <trkpt lat="47.31176" lon="-1.36973">
        <ele>61.7</ele>
        <time>2022-08-24T13:13:57Z</time>
      </trkpt>
      <trkpt lat="47.31217" lon="-1.36771">
        <ele>64.5</ele>
        <time>2022-08-24T13:14:15Z</time>
      </trkpt>
      <trkpt lat="47.31209" lon="-1.36706">
        <ele>64.9</ele>
        <time>2022-08-24T13:14:21Z</time>
      </trkpt>
      <trkpt lat="47.31167" lon="-1.36568">
        <ele>66.1</ele>
        <time>2022-08-24T13:14:34Z</time>
      </trkpt>
      <trkpt lat="47.3109" lon="-1.36316">
        <ele>62.1</ele>
        <time>2022-08-24T13:14:56Z</time>
      </trkpt>
      <trkpt lat="47.31049" lon="-1.3619">
        <ele>61.9</ele>
        <time>2022-08-24T13:15:07Z</time>
      </trkpt>
      <trkpt lat="47.31049" lon="-1.36153">
        <ele>62.1</ele>
        <time>2022-08-24T13:15:10Z</time>
      </trkpt>
      <trkpt lat="47.3108" lon="-1.35962">
        <ele>64</ele>
        <time>2022-08-24T13:15:27Z</time>
      </trkpt>
      <trkpt lat="47.31074" lon="-1.35929">
        <ele>63.8</ele>
        <time>2022-08-24T13:15:30Z</time>
      </trkpt>
      <trkpt lat="47.31023" lon="-1.35816">
        <ele>60.6</ele>
        <time>2022-08-24T13:15:41Z</time>
      </trkpt>
      <trkpt lat="47.31022" lon="-1.35764">
        <ele>59.1</ele>
        <time>2022-08-24T13:15:45Z</time>
      </trkpt>
      <trkpt lat="47.31029" lon="-1.3574">
        <ele>58.5</ele>
        <time>2022-08-24T13:15:47Z</time>
      </trkpt>
      <trkpt lat="47.31067" lon="-1.35681">
        <ele>56.1</ele>
        <time>2022-08-24T13:15:53Z</time>
      </trkpt>
      <trkpt lat="47.31119" lon="-1.35594">
        <ele>49.6</ele>
        <time>2022-08-24T13:16:01Z</time>
      </trkpt>
      <trkpt lat="47.31177" lon="-1.35524">
        <ele>42.9</ele>
        <time>2022-08-24T13:16:08Z</time>
      </trkpt>
      <trkpt lat="47.31198" lon="-1.35487">
        <ele>40.4</ele>
        <time>2022-08-24T13:16:11Z</time>
      </trkpt>
      <trkpt lat="47.31221" lon="-1.35434">
        <ele>37.8</ele>
        <time>2022-08-24T13:16:15Z</time>
      </trkpt>
      <trkpt lat="47.3127" lon="-1.35377">
        <ele>34.8</ele>
        <time>2022-08-24T13:16:21Z</time>
      </trkpt>
      <trkpt lat="47.31323" lon="-1.35331">
        <ele>31.6</ele>
        <time>2022-08-24T13:16:28Z</time>
      </trkpt>
      <trkpt lat="47.31321" lon="-1.353">
        <ele>29.9</ele>
        <time>2022-08-24T13:16:31Z</time>
      </trkpt>
      <trkpt lat="47.31303" lon="-1.35288">
        <ele>28.1</ele>
        <time>2022-08-24T13:16:34Z</time>
      </trkpt>
      <trkpt lat="47.31289" lon="-1.35297">
        <ele>26.9</ele>
        <time>2022-08-24T13:16:36Z</time>
      </trkpt>
      <trkpt lat="47.31256" lon="-1.35344">
        <ele>22.6</ele>
        <time>2022-08-24T13:16:42Z</time>
      </trkpt>
      <trkpt lat="47.31242" lon="-1.35344">
        <ele>21.2</ele>
        <time>2022-08-24T13:16:44Z</time>
      </trkpt>
      <trkpt lat="47.31235" lon="-1.35331">
        <ele>19.7</ele>
        <time>2022-08-24T13:16:46Z</time>
      </trkpt>
      <trkpt lat="47.31236" lon="-1.35312">
        <ele>18.4</ele>
        <time>2022-08-24T13:16:48Z</time>
      </trkpt>
      <trkpt lat="47.31258" lon="-1.35265">
        <ele>15.6</ele>
        <time>2022-08-24T13:16:53Z</time>
      </trkpt>
      <trkpt lat="47.31279" lon="-1.35195">
        <ele>12.8</ele>
        <time>2022-08-24T13:16:59Z</time>
      </trkpt>
      <trkpt lat="47.31296" lon="-1.35165">
        <ele>11.7</ele>
        <time>2022-08-24T13:17:02Z</time>
      </trkpt>
      <trkpt lat="47.31386" lon="-1.35025">
        <ele>11.4</ele>
        <time>2022-08-24T13:17:17Z</time>
      </trkpt>
      <trkpt lat="47.31423" lon="-1.34978">
        <ele>12.4</ele>
        <time>2022-08-24T13:17:23Z</time>
      </trkpt>
      <trkpt lat="47.31462" lon="-1.34934">
        <ele>14.5</ele>
        <time>2022-08-24T13:17:30Z</time>
      </trkpt>
      <trkpt lat="47.31544" lon="-1.34842">
        <ele>22.9</ele>
        <time>2022-08-24T13:17:51Z</time>
      </trkpt>
      <trkpt lat="47.31588" lon="-1.34795">
        <ele>25.1</ele>
        <time>2022-08-24T13:18:03Z</time>
      </trkpt>
      <trkpt lat="47.31641" lon="-1.34755">
        <ele>32.1</ele>
        <time>2022-08-24T13:18:19Z</time>
      </trkpt>
      <trkpt lat="47.31711" lon="-1.34731">
        <ele>40.8</ele>
        <time>2022-08-24T13:18:41Z</time>
      </trkpt>
      <trkpt lat="47.31807" lon="-1.347">
        <ele>48.7</ele>
        <time>2022-08-24T13:19:06Z</time>
      </trkpt>
      <trkpt lat="47.31884" lon="-1.3463">
        <ele>53</ele>
        <time>2022-08-24T13:19:25Z</time>
      </trkpt>
      <trkpt lat="47.31981" lon="-1.34558">
        <ele>60.7</ele>
        <time>2022-08-24T13:19:47Z</time>
      </trkpt>
      <trkpt lat="47.32164" lon="-1.34395">
        <ele>71.8</ele>
        <time>2022-08-24T13:20:27Z</time>
      </trkpt>
      <trkpt lat="47.32244" lon="-1.34365">
        <ele>72.8</ele>
        <time>2022-08-24T13:20:40Z</time>
      </trkpt>
      <trkpt lat="47.32465" lon="-1.34271">
        <ele>68.8</ele>
        <time>2022-08-24T13:21:08Z</time>
      </trkpt>
      <trkpt lat="47.32714" lon="-1.34166">
        <ele>73.4</ele>
        <time>2022-08-24T13:21:40Z</time>
      </trkpt>
      <trkpt lat="47.32769" lon="-1.34144">
        <ele>72.4</ele>
        <time>2022-08-24T13:21:47Z</time>
      </trkpt>
      <trkpt lat="47.32905" lon="-1.34084">
        <ele>65.5</ele>
        <time>2022-08-24T13:22:03Z</time>
      </trkpt>
      <trkpt lat="47.32937" lon="-1.34075">
        <ele>64.5</ele>
        <time>2022-08-24T13:22:07Z</time>
      </trkpt>
      <trkpt lat="47.32951" lon="-1.33997">
        <ele>62.9</ele>
        <time>2022-08-24T13:22:14Z</time>
      </trkpt>
      <trkpt lat="47.3299" lon="-1.33893">
        <ele>58</ele>
        <time>2022-08-24T13:22:23Z</time>
      </trkpt>
      <trkpt lat="47.33029" lon="-1.33791">
        <ele>50.8</ele>
        <time>2022-08-24T13:22:31Z</time>
      </trkpt>
      <trkpt lat="47.33077" lon="-1.33695">
        <ele>46.8</ele>
        <time>2022-08-24T13:22:39Z</time>
      </trkpt>
      <trkpt lat="47.33109" lon="-1.33589">
        <ele>42.9</ele>
        <time>2022-08-24T13:22:47Z</time>
      </trkpt>
      <trkpt lat="47.33118" lon="-1.33534">
        <ele>41.4</ele>
        <time>2022-08-24T13:22:51Z</time>
      </trkpt>
      <trkpt lat="47.33113" lon="-1.33493">
        <ele>40.6</ele>
        <time>2022-08-24T13:22:54Z</time>
      </trkpt>
      <trkpt lat="47.33093" lon="-1.33447">
        <ele>39.6</ele>
        <time>2022-08-24T13:22:58Z</time>
      </trkpt>
      <trkpt lat="47.33088" lon="-1.33422">
        <ele>39.3</ele>
        <time>2022-08-24T13:23:00Z</time>
      </trkpt>
      <trkpt lat="47.33035" lon="-1.33353">
        <ele>39</ele>
        <time>2022-08-24T13:23:08Z</time>
      </trkpt>
      <trkpt lat="47.33016" lon="-1.33314">
        <ele>40</ele>
        <time>2022-08-24T13:23:12Z</time>
      </trkpt>
      <trkpt lat="47.32931" lon="-1.33128">
        <ele>54.3</ele>
        <time>2022-08-24T13:23:47Z</time>
      </trkpt>
      <trkpt lat="47.32927" lon="-1.331">
        <ele>55.6</ele>
        <time>2022-08-24T13:23:52Z</time>
      </trkpt>
      <trkpt lat="47.32931" lon="-1.33069">
        <ele>57.2</ele>
        <time>2022-08-24T13:23:57Z</time>
      </trkpt>
      <trkpt lat="47.3299" lon="-1.32925">
        <ele>63</ele>
        <time>2022-08-24T13:24:18Z</time>
      </trkpt>
      <trkpt lat="47.33041" lon="-1.32844">
        <ele>62.3</ele>
        <time>2022-08-24T13:24:29Z</time>
      </trkpt>
      <trkpt lat="47.3308" lon="-1.32734">
        <ele>61.1</ele>
        <time>2022-08-24T13:24:40Z</time>
      </trkpt>
      <trkpt lat="47.33142" lon="-1.32809">
        <ele>62.8</ele>
        <time>2022-08-24T13:24:50Z</time>
      </trkpt>
      <trkpt lat="47.33162" lon="-1.32841">
        <ele>63.6</ele>
        <time>2022-08-24T13:24:54Z</time>
      </trkpt>
      <trkpt lat="47.33208" lon="-1.32946">
        <ele>65.5</ele>
        <time>2022-08-24T13:25:06Z</time>
      </trkpt>
      <trkpt lat="47.33273" lon="-1.33052">
        <ele>66.8</ele>
        <time>2022-08-24T13:25:19Z</time>
      </trkpt>
      <trkpt lat="47.33327" lon="-1.33176">
        <ele>67.2</ele>
        <time>2022-08-24T13:25:32Z</time>
      </trkpt>
      <trkpt lat="47.33442" lon="-1.33362">
        <ele>69.2</ele>
        <time>2022-08-24T13:25:54Z</time>
      </trkpt>
      <trkpt lat="47.33581" lon="-1.33619">
        <ele>72.3</ele>
        <time>2022-08-24T13:26:23Z</time>
      </trkpt>
      <trkpt lat="47.33687" lon="-1.33941">
        <ele>72.9</ele>
        <time>2022-08-24T13:26:54Z</time>
      </trkpt>
      <trkpt lat="47.33795" lon="-1.34134">
        <ele>76.4</ele>
        <time>2022-08-24T13:27:16Z</time>
      </trkpt>
      <trkpt lat="47.33902" lon="-1.34327">
        <ele>77.4</ele>
        <time>2022-08-24T13:27:38Z</time>
      </trkpt>
      <trkpt lat="47.34038" lon="-1.3454">
        <ele>79.1</ele>
        <time>2022-08-24T13:28:03Z</time>
      </trkpt>
      <trkpt lat="47.34076" lon="-1.34583">
        <ele>78.9</ele>
        <time>2022-08-24T13:28:09Z</time>
      </trkpt>
      <trkpt lat="47.34082" lon="-1.34583">
        <ele>78.9</ele>
        <time>2022-08-24T13:28:10Z</time>
      </trkpt>
      <trkpt lat="47.3413" lon="-1.34521">
        <ele>79.6</ele>
        <time>2022-08-24T13:28:18Z</time>
      </trkpt>
      <trkpt lat="47.34178" lon="-1.34486">
        <ele>80.7</ele>
        <time>2022-08-24T13:28:25Z</time>
      </trkpt>
      <trkpt lat="47.34213" lon="-1.34439">
        <ele>80.6</ele>
        <time>2022-08-24T13:28:31Z</time>
      </trkpt>
      <trkpt lat="47.34283" lon="-1.34347">
        <ele>77.3</ele>
        <time>2022-08-24T13:28:42Z</time>
      </trkpt>
      <trkpt lat="47.34323" lon="-1.34228">
        <ele>73.2</ele>
        <time>2022-08-24T13:28:52Z</time>
      </trkpt>
      <trkpt lat="47.34336" lon="-1.34163">
        <ele>71.7</ele>
        <time>2022-08-24T13:28:57Z</time>
      </trkpt>
      <trkpt lat="47.34363" lon="-1.3411">
        <ele>70.9</ele>
        <time>2022-08-24T13:29:02Z</time>
      </trkpt>
      <trkpt lat="47.34459" lon="-1.34039">
        <ele>68.8</ele>
        <time>2022-08-24T13:29:14Z</time>
      </trkpt>
      <trkpt lat="47.34533" lon="-1.33945">
        <ele>65.4</ele>
        <time>2022-08-24T13:29:25Z</time>
      </trkpt>
      <trkpt lat="47.34612" lon="-1.33886">
        <ele>65.3</ele>
        <time>2022-08-24T13:29:35Z</time>
      </trkpt>
      <trkpt lat="47.34639" lon="-1.33858">
        <ele>65.9</ele>
        <time>2022-08-24T13:29:39Z</time>
      </trkpt>
      <trkpt lat="47.34648" lon="-1.33839">
        <ele>66.3</ele>
        <time>2022-08-24T13:29:41Z</time>
      </trkpt>
      <trkpt lat="47.34652" lon="-1.33807">
        <ele>67</ele>
        <time>2022-08-24T13:29:44Z</time>
      </trkpt>
      <trkpt lat="47.34644" lon="-1.33737">
        <ele>68.8</ele>
        <time>2022-08-24T13:29:51Z</time>
      </trkpt>
      <trkpt lat="47.34646" lon="-1.33642">
        <ele>71.4</ele>
        <time>2022-08-24T13:30:01Z</time>
      </trkpt>
      <trkpt lat="47.3464" lon="-1.33498">
        <ele>72.8</ele>
        <time>2022-08-24T13:30:15Z</time>
      </trkpt>
      <trkpt lat="47.34558" lon="-1.33399">
        <ele>72.2</ele>
        <time>2022-08-24T13:30:29Z</time>
      </trkpt>
      <trkpt lat="47.34549" lon="-1.33376">
        <ele>72.2</ele>
        <time>2022-08-24T13:30:32Z</time>
      </trkpt>
      <trkpt lat="47.34574" lon="-1.3337">
        <ele>72.2</ele>
        <time>2022-08-24T13:30:36Z</time>
      </trkpt>
      <trkpt lat="47.34593" lon="-1.33355">
        <ele>72.2</ele>
        <time>2022-08-24T13:30:39Z</time>
      </trkpt>
      <trkpt lat="47.34662" lon="-1.33226">
        <ele>71.5</ele>
        <time>2022-08-24T13:30:53Z</time>
      </trkpt>
      <trkpt lat="47.3465" lon="-1.3306">
        <ele>66.1</ele>
        <time>2022-08-24T13:31:06Z</time>
      </trkpt>
      <trkpt lat="47.34631" lon="-1.32998">
        <ele>64.4</ele>
        <time>2022-08-24T13:31:11Z</time>
      </trkpt>
      <trkpt lat="47.34598" lon="-1.32935">
        <ele>63.6</ele>
        <time>2022-08-24T13:31:17Z</time>
      </trkpt>
      <trkpt lat="47.34607" lon="-1.32826">
        <ele>64.7</ele>
        <time>2022-08-24T13:31:26Z</time>
      </trkpt>
      <trkpt lat="47.34636" lon="-1.32742">
        <ele>67.1</ele>
        <time>2022-08-24T13:31:35Z</time>
      </trkpt>
      <trkpt lat="47.34658" lon="-1.32721">
        <ele>67.9</ele>
        <time>2022-08-24T13:31:39Z</time>
      </trkpt>
      <trkpt lat="47.34704" lon="-1.32709">
        <ele>69.2</ele>
        <time>2022-08-24T13:31:46Z</time>
      </trkpt>
      <trkpt lat="47.34755" lon="-1.32739">
        <ele>69.9</ele>
        <time>2022-08-24T13:31:54Z</time>
      </trkpt>
      <trkpt lat="47.34798" lon="-1.32739">
        <ele>70.2</ele>
        <time>2022-08-24T13:32:00Z</time>
      </trkpt>
      <trkpt lat="47.3482" lon="-1.32692">
        <ele>70.4</ele>
        <time>2022-08-24T13:32:05Z</time>
      </trkpt>
      <trkpt lat="47.34836" lon="-1.32639">
        <ele>70.6</ele>
        <time>2022-08-24T13:32:10Z</time>
      </trkpt>
      <trkpt lat="47.3484" lon="-1.32558">
        <ele>71.1</ele>
        <time>2022-08-24T13:32:17Z</time>
      </trkpt>
      <trkpt lat="47.34766" lon="-1.3241">
        <ele>70.6</ele>
        <time>2022-08-24T13:32:32Z</time>
      </trkpt>
      <trkpt lat="47.34719" lon="-1.3229">
        <ele>68.5</ele>
        <time>2022-08-24T13:32:43Z</time>
      </trkpt>
      <trkpt lat="47.34653" lon="-1.32141">
        <ele>67.4</ele>
        <time>2022-08-24T13:32:57Z</time>
      </trkpt>
      <trkpt lat="47.34621" lon="-1.321">
        <ele>67.6</ele>
        <time>2022-08-24T13:33:02Z</time>
      </trkpt>
      <trkpt lat="47.3456" lon="-1.32045">
        <ele>68.6</ele>
        <time>2022-08-24T13:33:11Z</time>
      </trkpt>
      <trkpt lat="47.34434" lon="-1.31856">
        <ele>73.3</ele>
        <time>2022-08-24T13:33:36Z</time>
      </trkpt>
      <trkpt lat="47.34356" lon="-1.31747">
        <ele>74.7</ele>
        <time>2022-08-24T13:33:51Z</time>
      </trkpt>
      <trkpt lat="47.34354" lon="-1.31739">
        <ele>74.8</ele>
        <time>2022-08-24T13:33:52Z</time>
      </trkpt>
      <trkpt lat="47.34368" lon="-1.31713">
        <ele>74.7</ele>
        <time>2022-08-24T13:33:55Z</time>
      </trkpt>
      <trkpt lat="47.34381" lon="-1.31671">
        <ele>74.5</ele>
        <time>2022-08-24T13:33:59Z</time>
      </trkpt>
      <trkpt lat="47.34383" lon="-1.31599">
        <ele>74.3</ele>
        <time>2022-08-24T13:34:05Z</time>
      </trkpt>
      <trkpt lat="47.3437" lon="-1.31528">
        <ele>74.1</ele>
        <time>2022-08-24T13:34:11Z</time>
      </trkpt>
      <trkpt lat="47.34371" lon="-1.31491">
        <ele>74</ele>
        <time>2022-08-24T13:34:14Z</time>
      </trkpt>
      <trkpt lat="47.34411" lon="-1.31382">
        <ele>73.2</ele>
        <time>2022-08-24T13:34:24Z</time>
      </trkpt>
      <trkpt lat="47.34419" lon="-1.31306">
        <ele>72</ele>
        <time>2022-08-24T13:34:30Z</time>
      </trkpt>
      <trkpt lat="47.34423" lon="-1.31214">
        <ele>69.7</ele>
        <time>2022-08-24T13:34:37Z</time>
      </trkpt>
      <trkpt lat="47.34415" lon="-1.3112">
        <ele>66</ele>
        <time>2022-08-24T13:34:44Z</time>
      </trkpt>
      <trkpt lat="47.34379" lon="-1.30974">
        <ele>60.3</ele>
        <time>2022-08-24T13:34:55Z</time>
      </trkpt>
      <trkpt lat="47.34378" lon="-1.30947">
        <ele>59.4</ele>
        <time>2022-08-24T13:34:57Z</time>
      </trkpt>
      <trkpt lat="47.34383" lon="-1.3092">
        <ele>58.5</ele>
        <time>2022-08-24T13:34:59Z</time>
      </trkpt>
      <trkpt lat="47.34426" lon="-1.30808">
        <ele>53.1</ele>
        <time>2022-08-24T13:35:08Z</time>
      </trkpt>
      <trkpt lat="47.34437" lon="-1.30738">
        <ele>50.6</ele>
        <time>2022-08-24T13:35:13Z</time>
      </trkpt>
      <trkpt lat="47.34431" lon="-1.30712">
        <ele>49.9</ele>
        <time>2022-08-24T13:35:15Z</time>
      </trkpt>
      <trkpt lat="47.34399" lon="-1.30682">
        <ele>48.5</ele>
        <time>2022-08-24T13:35:19Z</time>
      </trkpt>
      <trkpt lat="47.34371" lon="-1.30676">
        <ele>47</ele>
        <time>2022-08-24T13:35:22Z</time>
      </trkpt>
      <trkpt lat="47.34342" lon="-1.30682">
        <ele>45.3</ele>
        <time>2022-08-24T13:35:25Z</time>
      </trkpt>
      <trkpt lat="47.34324" lon="-1.30675">
        <ele>43.6</ele>
        <time>2022-08-24T13:35:27Z</time>
      </trkpt>
      <trkpt lat="47.34286" lon="-1.30621">
        <ele>38.4</ele>
        <time>2022-08-24T13:35:32Z</time>
      </trkpt>
      <trkpt lat="47.34242" lon="-1.3058">
        <ele>33.5</ele>
        <time>2022-08-24T13:35:37Z</time>
      </trkpt>
      <trkpt lat="47.34233" lon="-1.30555">
        <ele>32</ele>
        <time>2022-08-24T13:35:39Z</time>
      </trkpt>
      <trkpt lat="47.34214" lon="-1.30354">
        <ele>24.9</ele>
        <time>2022-08-24T13:35:53Z</time>
      </trkpt>
      <trkpt lat="47.34234" lon="-1.30257">
        <ele>20.2</ele>
        <time>2022-08-24T13:36:00Z</time>
      </trkpt>
      <trkpt lat="47.34247" lon="-1.30235">
        <ele>19.2</ele>
        <time>2022-08-24T13:36:02Z</time>
      </trkpt>
      <trkpt lat="47.34286" lon="-1.30192">
        <ele>17</ele>
        <time>2022-08-24T13:36:07Z</time>
      </trkpt>
      <trkpt lat="47.34303" lon="-1.30158">
        <ele>16</ele>
        <time>2022-08-24T13:36:10Z</time>
      </trkpt>
      <trkpt lat="47.34303" lon="-1.30117">
        <ele>14.9</ele>
        <time>2022-08-24T13:36:13Z</time>
      </trkpt>
      <trkpt lat="47.34274" lon="-1.30014">
        <ele>11.8</ele>
        <time>2022-08-24T13:36:21Z</time>
      </trkpt>
      <trkpt lat="47.34273" lon="-1.29986">
        <ele>11.2</ele>
        <time>2022-08-24T13:36:23Z</time>
      </trkpt>
      <trkpt lat="47.34282" lon="-1.29947">
        <ele>10.6</ele>
        <time>2022-08-24T13:36:26Z</time>
      </trkpt>
      <trkpt lat="47.34313" lon="-1.29852">
        <ele>9.7</ele>
        <time>2022-08-24T13:36:34Z</time>
      </trkpt>
      <trkpt lat="47.34404" lon="-1.29652">
        <ele>9.3</ele>
        <time>2022-08-24T13:36:53Z</time>
      </trkpt>
      <trkpt lat="47.34414" lon="-1.29617">
        <ele>9.2</ele>
        <time>2022-08-24T13:36:56Z</time>
      </trkpt>
      <trkpt lat="47.34439" lon="-1.29432">
        <ele>7.4</ele>
        <time>2022-08-24T13:37:11Z</time>
      </trkpt>
      <trkpt lat="47.34436" lon="-1.29128">
        <ele>10.8</ele>
        <time>2022-08-24T13:37:37Z</time>
      </trkpt>
      <trkpt lat="47.3444" lon="-1.29122">
        <ele>10.9</ele>
        <time>2022-08-24T13:37:38Z</time>
      </trkpt>
      <trkpt lat="47.34461" lon="-1.29116">
        <ele>11.4</ele>
        <time>2022-08-24T13:37:41Z</time>
      </trkpt>
      <trkpt lat="47.34469" lon="-1.29064">
        <ele>12.3</ele>
        <time>2022-08-24T13:37:46Z</time>
      </trkpt>
      <trkpt lat="47.34488" lon="-1.29008">
        <ele>13.4</ele>
        <time>2022-08-24T13:37:52Z</time>
      </trkpt>
      <trkpt lat="47.34552" lon="-1.28868">
        <ele>14.3</ele>
        <time>2022-08-24T13:38:07Z</time>
      </trkpt>
      <trkpt lat="47.34595" lon="-1.28707">
        <ele>11.5</ele>
        <time>2022-08-24T13:38:21Z</time>
      </trkpt>
      <trkpt lat="47.34646" lon="-1.28596">
        <ele>12.8</ele>
        <time>2022-08-24T13:38:36Z</time>
      </trkpt>
      <trkpt lat="47.34654" lon="-1.28599">
        <ele>12.9</ele>
        <time>2022-08-24T13:38:39Z</time>
      </trkpt>
      <trkpt lat="47.34649" lon="-1.28602">
        <ele>12.8</ele>
        <time>2022-08-24T13:38:41Z</time>
      </trkpt>
      <trkpt lat="47.34632" lon="-1.28576">
        <ele>12.5</ele>
        <time>2022-08-24T13:38:46Z</time>
      </trkpt>
      <trkpt lat="47.34589" lon="-1.28544">
        <ele>11.2</ele>
        <time>2022-08-24T13:38:53Z</time>
      </trkpt>
      <trkpt lat="47.34564" lon="-1.28515">
        <ele>9.8</ele>
        <time>2022-08-24T13:38:57Z</time>
      </trkpt>
      <trkpt lat="47.34546" lon="-1.2849">
        <ele>8.6</ele>
        <time>2022-08-24T13:39:00Z</time>
      </trkpt>
      <trkpt lat="47.34519" lon="-1.28424">
        <ele>7.1</ele>
        <time>2022-08-24T13:39:06Z</time>
      </trkpt>
      <trkpt lat="47.34512" lon="-1.28387">
        <ele>6.7</ele>
        <time>2022-08-24T13:39:09Z</time>
      </trkpt>
      <trkpt lat="47.34509" lon="-1.28336">
        <ele>6.4</ele>
        <time>2022-08-24T13:39:13Z</time>
      </trkpt>
      <trkpt lat="47.3452" lon="-1.28137">
        <ele>8.4</ele>
        <time>2022-08-24T13:39:30Z</time>
      </trkpt>
      <trkpt lat="47.34507" lon="-1.28072">
        <ele>9.1</ele>
        <time>2022-08-24T13:39:36Z</time>
      </trkpt>
      <trkpt lat="47.34496" lon="-1.28043">
        <ele>9.3</ele>
        <time>2022-08-24T13:39:39Z</time>
      </trkpt>
      <trkpt lat="47.34458" lon="-1.27984">
        <ele>9.3</ele>
        <time>2022-08-24T13:39:46Z</time>
      </trkpt>
      <trkpt lat="47.34437" lon="-1.27966">
        <ele>9.2</ele>
        <time>2022-08-24T13:39:49Z</time>
      </trkpt>
      <trkpt lat="47.34382" lon="-1.27938">
        <ele>8.7</ele>
        <time>2022-08-24T13:39:56Z</time>
      </trkpt>
      <trkpt lat="47.34245" lon="-1.27895">
        <ele>4.5</ele>
        <time>2022-08-24T13:40:12Z</time>
      </trkpt>
      <trkpt lat="47.34127" lon="-1.27857">
        <ele>4</ele>
        <time>2022-08-24T13:40:26Z</time>
      </trkpt>
      <trkpt lat="47.33959" lon="-1.27804">
        <ele>6.7</ele>
        <time>2022-08-24T13:40:48Z</time>
      </trkpt>
      <trkpt lat="47.33781" lon="-1.27747">
        <ele>11.9</ele>
        <time>2022-08-24T13:41:14Z</time>
      </trkpt>
      <trkpt lat="47.33747" lon="-1.27721">
        <ele>12.4</ele>
        <time>2022-08-24T13:41:20Z</time>
      </trkpt>
      <trkpt lat="47.33784" lon="-1.27687">
        <ele>12.8</ele>
        <time>2022-08-24T13:41:26Z</time>
      </trkpt>
      <trkpt lat="47.33804" lon="-1.27656">
        <ele>13.1</ele>
        <time>2022-08-24T13:41:30Z</time>
      </trkpt>
      <trkpt lat="47.33879" lon="-1.27478">
        <ele>25</ele>
        <time>2022-08-24T13:41:58Z</time>
      </trkpt>
      <trkpt lat="47.33904" lon="-1.27415">
        <ele>24.4</ele>
        <time>2022-08-24T13:42:07Z</time>
      </trkpt>
      <trkpt lat="47.33916" lon="-1.27369">
        <ele>25</ele>
        <time>2022-08-24T13:42:12Z</time>
      </trkpt>
      <trkpt lat="47.33924" lon="-1.27312">
        <ele>26.7</ele>
        <time>2022-08-24T13:42:18Z</time>
      </trkpt>
      <trkpt lat="47.33929" lon="-1.27239">
        <ele>29.9</ele>
        <time>2022-08-24T13:42:27Z</time>
      </trkpt>
      <trkpt lat="47.33913" lon="-1.27102">
        <ele>36.3</ele>
        <time>2022-08-24T13:42:47Z</time>
      </trkpt>
      <trkpt lat="47.33904" lon="-1.26964">
        <ele>43.4</ele>
        <time>2022-08-24T13:43:08Z</time>
      </trkpt>
      <trkpt lat="47.33884" lon="-1.26911">
        <ele>45.8</ele>
        <time>2022-08-24T13:43:17Z</time>
      </trkpt>
      <trkpt lat="47.33904" lon="-1.26836">
        <ele>48.8</ele>
        <time>2022-08-24T13:43:28Z</time>
      </trkpt>
      <trkpt lat="47.33902" lon="-1.26813">
        <ele>49.6</ele>
        <time>2022-08-24T13:43:31Z</time>
      </trkpt>
      <trkpt lat="47.33883" lon="-1.26752">
        <ele>51.3</ele>
        <time>2022-08-24T13:43:39Z</time>
      </trkpt>
      <trkpt lat="47.33891" lon="-1.26728">
        <ele>51.6</ele>
        <time>2022-08-24T13:43:42Z</time>
      </trkpt>
      <trkpt lat="47.33907" lon="-1.26711">
        <ele>51.6</ele>
        <time>2022-08-24T13:43:45Z</time>
      </trkpt>
      <trkpt lat="47.33921" lon="-1.26687">
        <ele>51.7</ele>
        <time>2022-08-24T13:43:48Z</time>
      </trkpt>
      <trkpt lat="47.33939" lon="-1.26591">
        <ele>52.2</ele>
        <time>2022-08-24T13:43:57Z</time>
      </trkpt>
      <trkpt lat="47.33937" lon="-1.26569">
        <ele>52.8</ele>
        <time>2022-08-24T13:43:59Z</time>
      </trkpt>
      <trkpt lat="47.33922" lon="-1.26516">
        <ele>56.8</ele>
        <time>2022-08-24T13:44:06Z</time>
      </trkpt>
      <trkpt lat="47.33874" lon="-1.26378">
        <ele>65.5</ele>
        <time>2022-08-24T13:44:31Z</time>
      </trkpt>
      <trkpt lat="47.33851" lon="-1.26354">
        <ele>66.1</ele>
        <time>2022-08-24T13:44:37Z</time>
      </trkpt>
      <trkpt lat="47.33741" lon="-1.26352">
        <ele>68.2</ele>
        <time>2022-08-24T13:44:54Z</time>
      </trkpt>
      <trkpt lat="47.33734" lon="-1.26287">
        <ele>68.1</ele>
        <time>2022-08-24T13:45:00Z</time>
      </trkpt>
      <trkpt lat="47.33737" lon="-1.26229">
        <ele>67.3</ele>
        <time>2022-08-24T13:45:05Z</time>
      </trkpt>
      <trkpt lat="47.33762" lon="-1.26179">
        <ele>66</ele>
        <time>2022-08-24T13:45:10Z</time>
      </trkpt>
      <trkpt lat="47.33769" lon="-1.26142">
        <ele>64.9</ele>
        <time>2022-08-24T13:45:13Z</time>
      </trkpt>
      <trkpt lat="47.33776" lon="-1.26062">
        <ele>61.5</ele>
        <time>2022-08-24T13:45:19Z</time>
      </trkpt>
      <trkpt lat="47.33787" lon="-1.25913">
        <ele>52.2</ele>
        <time>2022-08-24T13:45:29Z</time>
      </trkpt>
      <trkpt lat="47.33791" lon="-1.25853">
        <ele>51.4</ele>
        <time>2022-08-24T13:45:33Z</time>
      </trkpt>
      <trkpt lat="47.33783" lon="-1.25813">
        <ele>51.4</ele>
        <time>2022-08-24T13:45:36Z</time>
      </trkpt>
      <trkpt lat="47.3375" lon="-1.25791">
        <ele>51.9</ele>
        <time>2022-08-24T13:45:40Z</time>
      </trkpt>
      <trkpt lat="47.33739" lon="-1.25773">
        <ele>52.1</ele>
        <time>2022-08-24T13:45:42Z</time>
      </trkpt>
      <trkpt lat="47.33735" lon="-1.2575">
        <ele>52.3</ele>
        <time>2022-08-24T13:45:44Z</time>
      </trkpt>
      <trkpt lat="47.33737" lon="-1.25726">
        <ele>52.3</ele>
        <time>2022-08-24T13:45:46Z</time>
      </trkpt>
      <trkpt lat="47.33757" lon="-1.25686">
        <ele>51.6</ele>
        <time>2022-08-24T13:45:50Z</time>
      </trkpt>
      <trkpt lat="47.33761" lon="-1.25614">
        <ele>49.9</ele>
        <time>2022-08-24T13:45:56Z</time>
      </trkpt>
      <trkpt lat="47.3377" lon="-1.25598">
        <ele>49</ele>
        <time>2022-08-24T13:45:58Z</time>
      </trkpt>
      <trkpt lat="47.33784" lon="-1.25595">
        <ele>47.7</ele>
        <time>2022-08-24T13:46:00Z</time>
      </trkpt>
      <trkpt lat="47.33814" lon="-1.25618">
        <ele>44.7</ele>
        <time>2022-08-24T13:46:04Z</time>
      </trkpt>
      <trkpt lat="47.33841" lon="-1.2562">
        <ele>42.2</ele>
        <time>2022-08-24T13:46:07Z</time>
      </trkpt>
      <trkpt lat="47.33867" lon="-1.25597">
        <ele>39.6</ele>
        <time>2022-08-24T13:46:10Z</time>
      </trkpt>
      <trkpt lat="47.3388" lon="-1.25573">
        <ele>37.9</ele>
        <time>2022-08-24T13:46:12Z</time>
      </trkpt>
      <trkpt lat="47.33911" lon="-1.254">
        <ele>30.9</ele>
        <time>2022-08-24T13:46:24Z</time>
      </trkpt>
      <trkpt lat="47.33937" lon="-1.25205">
        <ele>26.1</ele>
        <time>2022-08-24T13:46:38Z</time>
      </trkpt>
      <trkpt lat="47.33934" lon="-1.25177">
        <ele>25.6</ele>
        <time>2022-08-24T13:46:40Z</time>
      </trkpt>
      <trkpt lat="47.3392" lon="-1.25126">
        <ele>24.2</ele>
        <time>2022-08-24T13:46:44Z</time>
      </trkpt>
      <trkpt lat="47.33877" lon="-1.25025">
        <ele>23.3</ele>
        <time>2022-08-24T13:46:53Z</time>
      </trkpt>
      <trkpt lat="47.33853" lon="-1.24989">
        <ele>23.9</ele>
        <time>2022-08-24T13:46:57Z</time>
      </trkpt>
      <trkpt lat="47.33809" lon="-1.24962">
        <ele>24.8</ele>
        <time>2022-08-24T13:47:03Z</time>
      </trkpt>
      <trkpt lat="47.33792" lon="-1.2494">
        <ele>24.8</ele>
        <time>2022-08-24T13:47:06Z</time>
      </trkpt>
      <trkpt lat="47.33791" lon="-1.24919">
        <ele>24.5</ele>
        <time>2022-08-24T13:47:08Z</time>
      </trkpt>
      <trkpt lat="47.33799" lon="-1.249">
        <ele>23.9</ele>
        <time>2022-08-24T13:47:10Z</time>
      </trkpt>
      <trkpt lat="47.33854" lon="-1.24841">
        <ele>18.6</ele>
        <time>2022-08-24T13:47:18Z</time>
      </trkpt>
      <trkpt lat="47.33866" lon="-1.24805">
        <ele>16.1</ele>
        <time>2022-08-24T13:47:21Z</time>
      </trkpt>
      <trkpt lat="47.33836" lon="-1.24692">
        <ele>14.3</ele>
        <time>2022-08-24T13:47:30Z</time>
      </trkpt>
      <trkpt lat="47.33781" lon="-1.24575">
        <ele>12.9</ele>
        <time>2022-08-24T13:47:41Z</time>
      </trkpt>
      <trkpt lat="47.3377" lon="-1.2454">
        <ele>12.7</ele>
        <time>2022-08-24T13:47:44Z</time>
      </trkpt>
      <trkpt lat="47.33769" lon="-1.24514">
        <ele>12.9</ele>
        <time>2022-08-24T13:47:46Z</time>
      </trkpt>
      <trkpt lat="47.33794" lon="-1.24354">
        <ele>14.9</ele>
        <time>2022-08-24T13:48:00Z</time>
      </trkpt>
      <trkpt lat="47.33805" lon="-1.24286">
        <ele>14.1</ele>
        <time>2022-08-24T13:48:06Z</time>
      </trkpt>
      <trkpt lat="47.33807" lon="-1.24178">
        <ele>14.6</ele>
        <time>2022-08-24T13:48:15Z</time>
      </trkpt>
      <trkpt lat="47.33819" lon="-1.24087">
        <ele>16.3</ele>
        <time>2022-08-24T13:48:23Z</time>
      </trkpt>
      <trkpt lat="47.33868" lon="-1.23852">
        <ele>13.1</ele>
        <time>2022-08-24T13:48:43Z</time>
      </trkpt>
      <trkpt lat="47.33942" lon="-1.23628">
        <ele>13.7</ele>
        <time>2022-08-24T13:49:03Z</time>
      </trkpt>
      <trkpt lat="47.33955" lon="-1.23571">
        <ele>14.4</ele>
        <time>2022-08-24T13:49:08Z</time>
      </trkpt>
      <trkpt lat="47.33974" lon="-1.23434">
        <ele>15.4</ele>
        <time>2022-08-24T13:49:20Z</time>
      </trkpt>
      <trkpt lat="47.33987" lon="-1.23378">
        <ele>15.2</ele>
        <time>2022-08-24T13:49:25Z</time>
      </trkpt>
      <trkpt lat="47.33996" lon="-1.23293">
        <ele>14.4</ele>
        <time>2022-08-24T13:49:32Z</time>
      </trkpt>
      <trkpt lat="47.34002" lon="-1.23069">
        <ele>13.3</ele>
        <time>2022-08-24T13:49:50Z</time>
      </trkpt>
      <trkpt lat="47.34028" lon="-1.22845">
        <ele>15.8</ele>
        <time>2022-08-24T13:50:09Z</time>
      </trkpt>
      <trkpt lat="47.34062" lon="-1.22717">
        <ele>15.8</ele>
        <time>2022-08-24T13:50:21Z</time>
      </trkpt>
      <trkpt lat="47.341" lon="-1.22436">
        <ele>18.9</ele>
        <time>2022-08-24T13:50:46Z</time>
      </trkpt>
      <trkpt lat="47.34151" lon="-1.22148">
        <ele>19.2</ele>
        <time>2022-08-24T13:51:11Z</time>
      </trkpt>
      <trkpt lat="47.34164" lon="-1.21973">
        <ele>16.4</ele>
        <time>2022-08-24T13:51:25Z</time>
      </trkpt>
      <trkpt lat="47.34175" lon="-1.21825">
        <ele>17.2</ele>
        <time>2022-08-24T13:51:37Z</time>
      </trkpt>
      <trkpt lat="47.34161" lon="-1.217">
        <ele>19.6</ele>
        <time>2022-08-24T13:51:48Z</time>
      </trkpt>
      <trkpt lat="47.3416" lon="-1.21295">
        <ele>17.7</ele>
        <time>2022-08-24T13:52:21Z</time>
      </trkpt>
      <trkpt lat="47.34169" lon="-1.21236">
        <ele>18.4</ele>
        <time>2022-08-24T13:52:26Z</time>
      </trkpt>
      <trkpt lat="47.34215" lon="-1.2107">
        <ele>22.8</ele>
        <time>2022-08-24T13:52:43Z</time>
      </trkpt>
      <trkpt lat="47.34246" lon="-1.20895">
        <ele>23.1</ele>
        <time>2022-08-24T13:53:00Z</time>
      </trkpt>
      <trkpt lat="47.3427" lon="-1.20733">
        <ele>26.4</ele>
        <time>2022-08-24T13:53:16Z</time>
      </trkpt>
      <trkpt lat="47.34253" lon="-1.20749">
        <ele>26.8</ele>
        <time>2022-08-24T13:53:19Z</time>
      </trkpt>
      <trkpt lat="47.3424" lon="-1.20786">
        <ele>27.3</ele>
        <time>2022-08-24T13:53:23Z</time>
      </trkpt>
      <trkpt lat="47.34211" lon="-1.20912">
        <ele>30.8</ele>
        <time>2022-08-24T13:53:37Z</time>
      </trkpt>
      <trkpt lat="47.34197" lon="-1.20927">
        <ele>31.8</ele>
        <time>2022-08-24T13:53:40Z</time>
      </trkpt>
      <trkpt lat="47.34175" lon="-1.20931">
        <ele>33</ele>
        <time>2022-08-24T13:53:44Z</time>
      </trkpt>
      <trkpt lat="47.34156" lon="-1.20917">
        <ele>34.2</ele>
        <time>2022-08-24T13:53:48Z</time>
      </trkpt>
      <trkpt lat="47.34148" lon="-1.20897">
        <ele>35</ele>
        <time>2022-08-24T13:53:51Z</time>
      </trkpt>
      <trkpt lat="47.3413" lon="-1.20714">
        <ele>44.7</ele>
        <time>2022-08-24T13:54:19Z</time>
      </trkpt>
      <trkpt lat="47.34126" lon="-1.20688">
        <ele>45.7</ele>
        <time>2022-08-24T13:54:23Z</time>
      </trkpt>
      <trkpt lat="47.34116" lon="-1.20673">
        <ele>46.4</ele>
        <time>2022-08-24T13:54:26Z</time>
      </trkpt>
      <trkpt lat="47.34098" lon="-1.20659">
        <ele>47.4</ele>
        <time>2022-08-24T13:54:30Z</time>
      </trkpt>
      <trkpt lat="47.34069" lon="-1.20649">
        <ele>49.3</ele>
        <time>2022-08-24T13:54:36Z</time>
      </trkpt>
      <trkpt lat="47.33962" lon="-1.20633">
        <ele>59.5</ele>
        <time>2022-08-24T13:55:04Z</time>
      </trkpt>
      <trkpt lat="47.33922" lon="-1.20618">
        <ele>63.7</ele>
        <time>2022-08-24T13:55:15Z</time>
      </trkpt>
      <trkpt lat="47.33894" lon="-1.20693">
        <ele>66.9</ele>
        <time>2022-08-24T13:55:28Z</time>
      </trkpt>
      <trkpt lat="47.33856" lon="-1.20867">
        <ele>73.2</ele>
        <time>2022-08-24T13:55:51Z</time>
      </trkpt>
      <trkpt lat="47.33835" lon="-1.21061">
        <ele>78.1</ele>
        <time>2022-08-24T13:56:13Z</time>
      </trkpt>
      <trkpt lat="47.33812" lon="-1.21242">
        <ele>78.6</ele>
        <time>2022-08-24T13:56:30Z</time>
      </trkpt>
      <trkpt lat="47.33711" lon="-1.21427">
        <ele>74.8</ele>
        <time>2022-08-24T13:56:49Z</time>
      </trkpt>
      <trkpt lat="47.3366" lon="-1.21578">
        <ele>71.9</ele>
        <time>2022-08-24T13:57:02Z</time>
      </trkpt>
      <trkpt lat="47.33643" lon="-1.21609">
        <ele>71.1</ele>
        <time>2022-08-24T13:57:05Z</time>
      </trkpt>
      <trkpt lat="47.33598" lon="-1.21653">
        <ele>69</ele>
        <time>2022-08-24T13:57:11Z</time>
      </trkpt>
      <trkpt lat="47.33505" lon="-1.21687">
        <ele>61.5</ele>
        <time>2022-08-24T13:57:21Z</time>
      </trkpt>
      <trkpt lat="47.33468" lon="-1.21711">
        <ele>59.7</ele>
        <time>2022-08-24T13:57:25Z</time>
      </trkpt>
      <trkpt lat="47.3345" lon="-1.21743">
        <ele>59.4</ele>
        <time>2022-08-24T13:57:28Z</time>
      </trkpt>
      <trkpt lat="47.3342" lon="-1.21853">
        <ele>59.7</ele>
        <time>2022-08-24T13:57:37Z</time>
      </trkpt>
      <trkpt lat="47.33411" lon="-1.21873">
        <ele>60</ele>
        <time>2022-08-24T13:57:39Z</time>
      </trkpt>
      <trkpt lat="47.33356" lon="-1.21933">
        <ele>61.6</ele>
        <time>2022-08-24T13:57:48Z</time>
      </trkpt>
      <trkpt lat="47.33297" lon="-1.2205">
        <ele>65.6</ele>
        <time>2022-08-24T13:58:03Z</time>
      </trkpt>
      <trkpt lat="47.33173" lon="-1.22233">
        <ele>71.6</ele>
        <time>2022-08-24T13:58:31Z</time>
      </trkpt>
      <trkpt lat="47.33133" lon="-1.22268">
        <ele>72.4</ele>
        <time>2022-08-24T13:58:38Z</time>
      </trkpt>
      <trkpt lat="47.33045" lon="-1.22301">
        <ele>72.6</ele>
        <time>2022-08-24T13:58:50Z</time>
      </trkpt>
      <trkpt lat="47.3298" lon="-1.22311">
        <ele>72.2</ele>
        <time>2022-08-24T13:58:58Z</time>
      </trkpt>
      <trkpt lat="47.32956" lon="-1.22322">
        <ele>71.9</ele>
        <time>2022-08-24T13:59:01Z</time>
      </trkpt>
      <trkpt lat="47.32941" lon="-1.22351">
        <ele>71.6</ele>
        <time>2022-08-24T13:59:04Z</time>
      </trkpt>
      <trkpt lat="47.32926" lon="-1.22424">
        <ele>70.4</ele>
        <time>2022-08-24T13:59:10Z</time>
      </trkpt>
      <trkpt lat="47.32906" lon="-1.22482">
        <ele>69.2</ele>
        <time>2022-08-24T13:59:15Z</time>
      </trkpt>
      <trkpt lat="47.3289" lon="-1.22512">
        <ele>68.7</ele>
        <time>2022-08-24T13:59:18Z</time>
      </trkpt>
      <trkpt lat="47.32839" lon="-1.22567">
        <ele>66.4</ele>
        <time>2022-08-24T13:59:25Z</time>
      </trkpt>
      <trkpt lat="47.32747" lon="-1.22648">
        <ele>57.4</ele>
        <time>2022-08-24T13:59:36Z</time>
      </trkpt>
      <trkpt lat="47.32717" lon="-1.22654">
        <ele>55.6</ele>
        <time>2022-08-24T13:59:39Z</time>
      </trkpt>
      <trkpt lat="47.3267" lon="-1.22628">
        <ele>53</ele>
        <time>2022-08-24T13:59:44Z</time>
      </trkpt>
      <trkpt lat="47.32626" lon="-1.22569">
        <ele>49.7</ele>
        <time>2022-08-24T13:59:50Z</time>
      </trkpt>
      <trkpt lat="47.32592" lon="-1.22522">
        <ele>49.9</ele>
        <time>2022-08-24T13:59:55Z</time>
      </trkpt>
      <trkpt lat="47.32561" lon="-1.22504">
        <ele>51.7</ele>
        <time>2022-08-24T13:59:59Z</time>
      </trkpt>
      <trkpt lat="47.32528" lon="-1.22496">
        <ele>54</ele>
        <time>2022-08-24T14:00:04Z</time>
      </trkpt>
      <trkpt lat="47.32489" lon="-1.22477">
        <ele>57</ele>
        <time>2022-08-24T14:00:12Z</time>
      </trkpt>
      <trkpt lat="47.32467" lon="-1.22452">
        <ele>58.9</ele>
        <time>2022-08-24T14:00:18Z</time>
      </trkpt>
      <trkpt lat="47.32459" lon="-1.22434">
        <ele>59.7</ele>
        <time>2022-08-24T14:00:21Z</time>
      </trkpt>
      <trkpt lat="47.32442" lon="-1.22358">
        <ele>62.9</ele>
        <time>2022-08-24T14:00:32Z</time>
      </trkpt>
      <trkpt lat="47.32426" lon="-1.22319">
        <ele>64.5</ele>
        <time>2022-08-24T14:00:38Z</time>
      </trkpt>
      <trkpt lat="47.32384" lon="-1.22253">
        <ele>67</ele>
        <time>2022-08-24T14:00:49Z</time>
      </trkpt>
      <trkpt lat="47.32375" lon="-1.22243">
        <ele>67.5</ele>
        <time>2022-08-24T14:00:51Z</time>
      </trkpt>
      <trkpt lat="47.32364" lon="-1.22242">
        <ele>67.9</ele>
        <time>2022-08-24T14:00:53Z</time>
      </trkpt>
      <trkpt lat="47.32301" lon="-1.22313">
        <ele>70.7</ele>
        <time>2022-08-24T14:01:06Z</time>
      </trkpt>
      <trkpt lat="47.32205" lon="-1.22362">
        <ele>73.9</ele>
        <time>2022-08-24T14:01:22Z</time>
      </trkpt>
      <trkpt lat="47.3218" lon="-1.22392">
        <ele>74.6</ele>
        <time>2022-08-24T14:01:27Z</time>
      </trkpt>
      <trkpt lat="47.32171" lon="-1.22419">
        <ele>75</ele>
        <time>2022-08-24T14:01:30Z</time>
      </trkpt>
      <trkpt lat="47.32165" lon="-1.22469">
        <ele>75.7</ele>
        <time>2022-08-24T14:01:35Z</time>
      </trkpt>
      <trkpt lat="47.32144" lon="-1.22688">
        <ele>77.2</ele>
        <time>2022-08-24T14:01:55Z</time>
      </trkpt>
      <trkpt lat="47.32128" lon="-1.22727">
        <ele>77.4</ele>
        <time>2022-08-24T14:01:59Z</time>
      </trkpt>
      <trkpt lat="47.32022" lon="-1.22813">
        <ele>79.7</ele>
        <time>2022-08-24T14:02:15Z</time>
      </trkpt>
      <trkpt lat="47.31888" lon="-1.22916">
        <ele>79.5</ele>
        <time>2022-08-24T14:02:34Z</time>
      </trkpt>
      <trkpt lat="47.31779" lon="-1.23052">
        <ele>79.4</ele>
        <time>2022-08-24T14:02:51Z</time>
      </trkpt>
      <trkpt lat="47.31648" lon="-1.23198">
        <ele>76.1</ele>
        <time>2022-08-24T14:03:10Z</time>
      </trkpt>
      <trkpt lat="47.31523" lon="-1.23299">
        <ele>70.8</ele>
        <time>2022-08-24T14:03:26Z</time>
      </trkpt>
      <trkpt lat="47.31373" lon="-1.23357">
        <ele>70.7</ele>
        <time>2022-08-24T14:03:44Z</time>
      </trkpt>
      <trkpt lat="47.31043" lon="-1.23483">
        <ele>77.5</ele>
        <time>2022-08-24T14:04:30Z</time>
      </trkpt>
      <trkpt lat="47.30874" lon="-1.23548">
        <ele>82.7</ele>
        <time>2022-08-24T14:04:55Z</time>
      </trkpt>
      <trkpt lat="47.30633" lon="-1.23641">
        <ele>86</ele>
        <time>2022-08-24T14:05:28Z</time>
      </trkpt>
      <trkpt lat="47.30397" lon="-1.23731">
        <ele>81.9</ele>
        <time>2022-08-24T14:05:57Z</time>
      </trkpt>
      <trkpt lat="47.30208" lon="-1.23803">
        <ele>83</ele>
        <time>2022-08-24T14:06:20Z</time>
      </trkpt>
      <trkpt lat="47.30085" lon="-1.2385">
        <ele>81.4</ele>
        <time>2022-08-24T14:06:35Z</time>
      </trkpt>
      <trkpt lat="47.30051" lon="-1.23854">
        <ele>81.2</ele>
        <time>2022-08-24T14:06:39Z</time>
      </trkpt>
      <trkpt lat="47.30004" lon="-1.23827">
        <ele>81.2</ele>
        <time>2022-08-24T14:06:45Z</time>
      </trkpt>
      <trkpt lat="47.29979" lon="-1.23827">
        <ele>81.3</ele>
        <time>2022-08-24T14:06:48Z</time>
      </trkpt>
      <trkpt lat="47.29963" lon="-1.23852">
        <ele>81.4</ele>
        <time>2022-08-24T14:06:51Z</time>
      </trkpt>
      <trkpt lat="47.29917" lon="-1.23978">
        <ele>82.1</ele>
        <time>2022-08-24T14:07:03Z</time>
      </trkpt>
      <trkpt lat="47.29867" lon="-1.24154">
        <ele>82.3</ele>
        <time>2022-08-24T14:07:19Z</time>
      </trkpt>
      <trkpt lat="47.29851" lon="-1.24174">
        <ele>82.2</ele>
        <time>2022-08-24T14:07:22Z</time>
      </trkpt>
      <trkpt lat="47.29829" lon="-1.24169">
        <ele>82.1</ele>
        <time>2022-08-24T14:07:25Z</time>
      </trkpt>
      <trkpt lat="47.29754" lon="-1.24076">
        <ele>81</ele>
        <time>2022-08-24T14:07:37Z</time>
      </trkpt>
      <trkpt lat="47.29559" lon="-1.23899">
        <ele>74.3</ele>
        <time>2022-08-24T14:08:03Z</time>
      </trkpt>
      <trkpt lat="47.29533" lon="-1.23892">
        <ele>74.2</ele>
        <time>2022-08-24T14:08:06Z</time>
      </trkpt>
      <trkpt lat="47.29516" lon="-1.23896">
        <ele>74.2</ele>
        <time>2022-08-24T14:08:08Z</time>
      </trkpt>
      <trkpt lat="47.29467" lon="-1.23949">
        <ele>74.3</ele>
        <time>2022-08-24T14:08:15Z</time>
      </trkpt>
      <trkpt lat="47.2943" lon="-1.24016">
        <ele>74.2</ele>
        <time>2022-08-24T14:08:22Z</time>
      </trkpt>
      <trkpt lat="47.29316" lon="-1.2417">
        <ele>72.6</ele>
        <time>2022-08-24T14:08:40Z</time>
      </trkpt>
      <trkpt lat="47.29262" lon="-1.24298">
        <ele>71.5</ele>
        <time>2022-08-24T14:08:52Z</time>
      </trkpt>
      <trkpt lat="47.29214" lon="-1.24554">
        <ele>70.2</ele>
        <time>2022-08-24T14:09:13Z</time>
      </trkpt>
      <trkpt lat="47.29215" lon="-1.24591">
        <ele>70.2</ele>
        <time>2022-08-24T14:09:16Z</time>
      </trkpt>
      <trkpt lat="47.29227" lon="-1.24699">
        <ele>70.9</ele>
        <time>2022-08-24T14:09:25Z</time>
      </trkpt>
      <trkpt lat="47.29225" lon="-1.24734">
        <ele>71.3</ele>
        <time>2022-08-24T14:09:28Z</time>
      </trkpt>
      <trkpt lat="47.29206" lon="-1.24858">
        <ele>72.3</ele>
        <time>2022-08-24T14:09:39Z</time>
      </trkpt>
      <trkpt lat="47.29178" lon="-1.24945">
        <ele>71.4</ele>
        <time>2022-08-24T14:09:47Z</time>
      </trkpt>
      <trkpt lat="47.29162" lon="-1.24973">
        <ele>71</ele>
        <time>2022-08-24T14:09:50Z</time>
      </trkpt>
      <trkpt lat="47.29113" lon="-1.25023">
        <ele>70.8</ele>
        <time>2022-08-24T14:09:57Z</time>
      </trkpt>
      <trkpt lat="47.29065" lon="-1.2512">
        <ele>71.5</ele>
        <time>2022-08-24T14:10:07Z</time>
      </trkpt>
      <trkpt lat="47.28959" lon="-1.25215">
        <ele>73.3</ele>
        <time>2022-08-24T14:10:23Z</time>
      </trkpt>
      <trkpt lat="47.28917" lon="-1.25278">
        <ele>74.4</ele>
        <time>2022-08-24T14:10:31Z</time>
      </trkpt>
      <trkpt lat="47.28851" lon="-1.25355">
        <ele>74.9</ele>
        <time>2022-08-24T14:10:42Z</time>
      </trkpt>
      <trkpt lat="47.28733" lon="-1.25515">
        <ele>75</ele>
        <time>2022-08-24T14:11:02Z</time>
      </trkpt>
      <trkpt lat="47.28702" lon="-1.25532">
        <ele>74.7</ele>
        <time>2022-08-24T14:11:06Z</time>
      </trkpt>
      <trkpt lat="47.28651" lon="-1.25541">
        <ele>73.5</ele>
        <time>2022-08-24T14:11:12Z</time>
      </trkpt>
      <trkpt lat="47.28545" lon="-1.25537">
        <ele>70.3</ele>
        <time>2022-08-24T14:11:24Z</time>
      </trkpt>
      <trkpt lat="47.28447" lon="-1.25577">
        <ele>68.6</ele>
        <time>2022-08-24T14:11:36Z</time>
      </trkpt>
      <trkpt lat="47.28427" lon="-1.25569">
        <ele>67.8</ele>
        <time>2022-08-24T14:11:39Z</time>
      </trkpt>
      <trkpt lat="47.28417" lon="-1.2554">
        <ele>66.6</ele>
        <time>2022-08-24T14:11:42Z</time>
      </trkpt>
      <trkpt lat="47.28401" lon="-1.25396">
        <ele>58.7</ele>
        <time>2022-08-24T14:11:53Z</time>
      </trkpt>
      <trkpt lat="47.28394" lon="-1.25355">
        <ele>58.1</ele>
        <time>2022-08-24T14:11:56Z</time>
      </trkpt>
      <trkpt lat="47.28382" lon="-1.25319">
        <ele>58.5</ele>
        <time>2022-08-24T14:11:59Z</time>
      </trkpt>
      <trkpt lat="47.28367" lon="-1.25305">
        <ele>58.9</ele>
        <time>2022-08-24T14:12:01Z</time>
      </trkpt>
      <trkpt lat="47.28351" lon="-1.25303">
        <ele>59.4</ele>
        <time>2022-08-24T14:12:03Z</time>
      </trkpt>
      <trkpt lat="47.28303" lon="-1.25325">
        <ele>61.3</ele>
        <time>2022-08-24T14:12:10Z</time>
      </trkpt>
      <trkpt lat="47.28278" lon="-1.25319">
        <ele>62.6</ele>
        <time>2022-08-24T14:12:14Z</time>
      </trkpt>
      <trkpt lat="47.28268" lon="-1.25311">
        <ele>63.2</ele>
        <time>2022-08-24T14:12:16Z</time>
      </trkpt>
      <trkpt lat="47.28218" lon="-1.25223">
        <ele>66.8</ele>
        <time>2022-08-24T14:12:29Z</time>
      </trkpt>
      <trkpt lat="47.28188" lon="-1.25128">
        <ele>68.1</ele>
        <time>2022-08-24T14:12:40Z</time>
      </trkpt>
      <trkpt lat="47.28135" lon="-1.2507">
        <ele>68</ele>
        <time>2022-08-24T14:12:49Z</time>
      </trkpt>
      <trkpt lat="47.28036" lon="-1.24881">
        <ele>69.4</ele>
        <time>2022-08-24T14:13:10Z</time>
      </trkpt>
      <trkpt lat="47.27968" lon="-1.24796">
        <ele>71.9</ele>
        <time>2022-08-24T14:13:22Z</time>
      </trkpt>
      <trkpt lat="47.27937" lon="-1.24693">
        <ele>73.6</ele>
        <time>2022-08-24T14:13:33Z</time>
      </trkpt>
      <trkpt lat="47.27926" lon="-1.24666">
        <ele>73.7</ele>
        <time>2022-08-24T14:13:36Z</time>
      </trkpt>
      <trkpt lat="47.27908" lon="-1.24647">
        <ele>73.6</ele>
        <time>2022-08-24T14:13:39Z</time>
      </trkpt>
      <trkpt lat="47.27868" lon="-1.24638">
        <ele>72.5</ele>
        <time>2022-08-24T14:13:44Z</time>
      </trkpt>
      <trkpt lat="47.27763" lon="-1.24644">
        <ele>66.8</ele>
        <time>2022-08-24T14:13:56Z</time>
      </trkpt>
      <trkpt lat="47.27687" lon="-1.24622">
        <ele>68.4</ele>
        <time>2022-08-24T14:14:05Z</time>
      </trkpt>
      <trkpt lat="47.27664" lon="-1.24629">
        <ele>69.6</ele>
        <time>2022-08-24T14:14:08Z</time>
      </trkpt>
      <trkpt lat="47.27592" lon="-1.24669">
        <ele>72.9</ele>
        <time>2022-08-24T14:14:20Z</time>
      </trkpt>
      <trkpt lat="47.27556" lon="-1.24677">
        <ele>74.5</ele>
        <time>2022-08-24T14:14:26Z</time>
      </trkpt>
      <trkpt lat="47.27399" lon="-1.24703">
        <ele>80.9</ele>
        <time>2022-08-24T14:14:52Z</time>
      </trkpt>
      <trkpt lat="47.27318" lon="-1.24699">
        <ele>81.5</ele>
        <time>2022-08-24T14:15:04Z</time>
      </trkpt>
      <trkpt lat="47.27229" lon="-1.24709">
        <ele>82.5</ele>
        <time>2022-08-24T14:15:16Z</time>
      </trkpt>
      <trkpt lat="47.27193" lon="-1.2469">
        <ele>82.8</ele>
        <time>2022-08-24T14:15:21Z</time>
      </trkpt>
      <trkpt lat="47.27144" lon="-1.24652">
        <ele>82.9</ele>
        <time>2022-08-24T14:15:28Z</time>
      </trkpt>
      <trkpt lat="47.26969" lon="-1.24564">
        <ele>85.5</ele>
        <time>2022-08-24T14:15:52Z</time>
      </trkpt>
      <trkpt lat="47.26885" lon="-1.24552">
        <ele>85.9</ele>
        <time>2022-08-24T14:16:03Z</time>
      </trkpt>
      <trkpt lat="47.26714" lon="-1.24497">
        <ele>88.8</ele>
        <time>2022-08-24T14:16:26Z</time>
      </trkpt>
      <trkpt lat="47.26602" lon="-1.24445">
        <ele>88.9</ele>
        <time>2022-08-24T14:16:41Z</time>
      </trkpt>
      <trkpt lat="47.26558" lon="-1.24418">
        <ele>89.5</ele>
        <time>2022-08-24T14:16:47Z</time>
      </trkpt>
      <trkpt lat="47.26547" lon="-1.24404">
        <ele>89.7</ele>
        <time>2022-08-24T14:16:49Z</time>
      </trkpt>
      <trkpt lat="47.26537" lon="-1.24337">
        <ele>90.2</ele>
        <time>2022-08-24T14:16:55Z</time>
      </trkpt>
      <trkpt lat="47.26513" lon="-1.24256">
        <ele>90.9</ele>
        <time>2022-08-24T14:17:03Z</time>
      </trkpt>
      <trkpt lat="47.26492" lon="-1.2427">
        <ele>91.1</ele>
        <time>2022-08-24T14:17:06Z</time>
      </trkpt>
      <trkpt lat="47.26422" lon="-1.24286">
        <ele>91.4</ele>
        <time>2022-08-24T14:17:15Z</time>
      </trkpt>
      <trkpt lat="47.2638" lon="-1.24321">
        <ele>90.9</ele>
        <time>2022-08-24T14:17:21Z</time>
      </trkpt>
      <trkpt lat="47.26088" lon="-1.24484">
        <ele>85.2</ele>
        <time>2022-08-24T14:17:57Z</time>
      </trkpt>
      <trkpt lat="47.25907" lon="-1.24541">
        <ele>81.5</ele>
        <time>2022-08-24T14:18:18Z</time>
      </trkpt>
      <trkpt lat="47.2583" lon="-1.24607">
        <ele>79</ele>
        <time>2022-08-24T14:18:28Z</time>
      </trkpt>
      <trkpt lat="47.25804" lon="-1.24616">
        <ele>77.2</ele>
        <time>2022-08-24T14:18:31Z</time>
      </trkpt>
      <trkpt lat="47.25717" lon="-1.2459">
        <ele>70.3</ele>
        <time>2022-08-24T14:18:40Z</time>
      </trkpt>
      <trkpt lat="47.25699" lon="-1.24576">
        <ele>68.7</ele>
        <time>2022-08-24T14:18:42Z</time>
      </trkpt>
      <trkpt lat="47.25692" lon="-1.24566">
        <ele>67.9</ele>
        <time>2022-08-24T14:18:43Z</time>
      </trkpt>
      <trkpt lat="47.2566" lon="-1.24469">
        <ele>62.9</ele>
        <time>2022-08-24T14:18:50Z</time>
      </trkpt>
      <trkpt lat="47.25646" lon="-1.24447">
        <ele>61.3</ele>
        <time>2022-08-24T14:18:52Z</time>
      </trkpt>
      <trkpt lat="47.25618" lon="-1.24426">
        <ele>59</ele>
        <time>2022-08-24T14:18:55Z</time>
      </trkpt>
      <trkpt lat="47.25549" lon="-1.24411">
        <ele>56</ele>
        <time>2022-08-24T14:19:02Z</time>
      </trkpt>
      <trkpt lat="47.25462" lon="-1.24392">
        <ele>57.9</ele>
        <time>2022-08-24T14:19:12Z</time>
      </trkpt>
      <trkpt lat="47.25391" lon="-1.2436">
        <ele>62.8</ele>
        <time>2022-08-24T14:19:24Z</time>
      </trkpt>
      <trkpt lat="47.25297" lon="-1.24308">
        <ele>70.2</ele>
        <time>2022-08-24T14:19:45Z</time>
      </trkpt>
      <trkpt lat="47.25195" lon="-1.24252">
        <ele>76</ele>
        <time>2022-08-24T14:20:07Z</time>
      </trkpt>
      <trkpt lat="47.25178" lon="-1.2425">
        <ele>76.2</ele>
        <time>2022-08-24T14:20:10Z</time>
      </trkpt>
      <trkpt lat="47.25048" lon="-1.24283">
        <ele>71.9</ele>
        <time>2022-08-24T14:20:27Z</time>
      </trkpt>
      <trkpt lat="47.2495" lon="-1.24302">
        <ele>66.5</ele>
        <time>2022-08-24T14:20:38Z</time>
      </trkpt>
      <trkpt lat="47.24922" lon="-1.24299">
        <ele>65.1</ele>
        <time>2022-08-24T14:20:41Z</time>
      </trkpt>
      <trkpt lat="47.24895" lon="-1.24286">
        <ele>64.3</ele>
        <time>2022-08-24T14:20:44Z</time>
      </trkpt>
      <trkpt lat="47.24881" lon="-1.2427">
        <ele>63.7</ele>
        <time>2022-08-24T14:20:46Z</time>
      </trkpt>
      <trkpt lat="47.24851" lon="-1.242">
        <ele>61.1</ele>
        <time>2022-08-24T14:20:52Z</time>
      </trkpt>
      <trkpt lat="47.24832" lon="-1.2417">
        <ele>59.8</ele>
        <time>2022-08-24T14:20:55Z</time>
      </trkpt>
      <trkpt lat="47.24808" lon="-1.24149">
        <ele>58.6</ele>
        <time>2022-08-24T14:20:58Z</time>
      </trkpt>
      <trkpt lat="47.2478" lon="-1.24142">
        <ele>57.4</ele>
        <time>2022-08-24T14:21:01Z</time>
      </trkpt>
      <trkpt lat="47.24744" lon="-1.24151">
        <ele>56.2</ele>
        <time>2022-08-24T14:21:05Z</time>
      </trkpt>
      <trkpt lat="47.24712" lon="-1.24179">
        <ele>55.1</ele>
        <time>2022-08-24T14:21:09Z</time>
      </trkpt>
      <trkpt lat="47.24681" lon="-1.24229">
        <ele>53.3</ele>
        <time>2022-08-24T14:21:14Z</time>
      </trkpt>
      <trkpt lat="47.24661" lon="-1.24304">
        <ele>51.9</ele>
        <time>2022-08-24T14:21:20Z</time>
      </trkpt>
      <trkpt lat="47.24642" lon="-1.24332">
        <ele>51.6</ele>
        <time>2022-08-24T14:21:23Z</time>
      </trkpt>
      <trkpt lat="47.24617" lon="-1.24344">
        <ele>51.4</ele>
        <time>2022-08-24T14:21:26Z</time>
      </trkpt>
      <trkpt lat="47.24515" lon="-1.24357">
        <ele>51</ele>
        <time>2022-08-24T14:21:38Z</time>
      </trkpt>
      <trkpt lat="47.24422" lon="-1.24397">
        <ele>53.4</ele>
        <time>2022-08-24T14:21:51Z</time>
      </trkpt>
      <trkpt lat="47.24292" lon="-1.24414">
        <ele>62.8</ele>
        <time>2022-08-24T14:22:15Z</time>
      </trkpt>
      <trkpt lat="47.24092" lon="-1.24435">
        <ele>68.9</ele>
        <time>2022-08-24T14:22:49Z</time>
      </trkpt>
      <trkpt lat="47.23865" lon="-1.24396">
        <ele>75.3</ele>
        <time>2022-08-24T14:23:23Z</time>
      </trkpt>
      <trkpt lat="47.23819" lon="-1.24405">
        <ele>76.4</ele>
        <time>2022-08-24T14:23:30Z</time>
      </trkpt>
      <trkpt lat="47.23797" lon="-1.24382">
        <ele>76.8</ele>
        <time>2022-08-24T14:23:34Z</time>
      </trkpt>
      <trkpt lat="47.23776" lon="-1.24383">
        <ele>77</ele>
        <time>2022-08-24T14:23:37Z</time>
      </trkpt>
      <trkpt lat="47.23772" lon="-1.24387">
        <ele>77.1</ele>
        <time>2022-08-24T14:23:38Z</time>
      </trkpt>
      <trkpt lat="47.23788" lon="-1.24464">
        <ele>76.6</ele>
        <time>2022-08-24T14:23:45Z</time>
      </trkpt>
      <trkpt lat="47.23834" lon="-1.24514">
        <ele>75.1</ele>
        <time>2022-08-24T14:23:52Z</time>
      </trkpt>
      <trkpt lat="47.23858" lon="-1.24551">
        <ele>74.3</ele>
        <time>2022-08-24T14:23:56Z</time>
      </trkpt>
      <trkpt lat="47.23895" lon="-1.24693">
        <ele>73.3</ele>
        <time>2022-08-24T14:24:08Z</time>
      </trkpt>
      <trkpt lat="47.23936" lon="-1.24803">
        <ele>72.9</ele>
        <time>2022-08-24T14:24:18Z</time>
      </trkpt>
      <trkpt lat="47.23958" lon="-1.24842">
        <ele>73</ele>
        <time>2022-08-24T14:24:22Z</time>
      </trkpt>
      <trkpt lat="47.24249" lon="-1.25128">
        <ele>77.1</ele>
        <time>2022-08-24T14:25:07Z</time>
      </trkpt>
      <trkpt lat="47.2428" lon="-1.25179">
        <ele>77.6</ele>
        <time>2022-08-24T14:25:13Z</time>
      </trkpt>
      <trkpt lat="47.24308" lon="-1.25263">
        <ele>77.5</ele>
        <time>2022-08-24T14:25:21Z</time>
      </trkpt>
      <trkpt lat="47.24433" lon="-1.25712">
        <ele>75.8</ele>
        <time>2022-08-24T14:26:00Z</time>
      </trkpt>
      <trkpt lat="47.24434" lon="-1.25723">
        <ele>75.7</ele>
        <time>2022-08-24T14:26:01Z</time>
      </trkpt>
      <trkpt lat="47.2442" lon="-1.25752">
        <ele>75.4</ele>
        <time>2022-08-24T14:26:04Z</time>
      </trkpt>
      <trkpt lat="47.24433" lon="-1.25865">
        <ele>74.2</ele>
        <time>2022-08-24T14:26:13Z</time>
      </trkpt>
      <trkpt lat="47.24424" lon="-1.25886">
        <ele>73.9</ele>
        <time>2022-08-24T14:26:15Z</time>
      </trkpt>
      <trkpt lat="47.24403" lon="-1.25909">
        <ele>73.6</ele>
        <time>2022-08-24T14:26:18Z</time>
      </trkpt>
      <trkpt lat="47.24252" lon="-1.25939">
        <ele>73.5</ele>
        <time>2022-08-24T14:26:36Z</time>
      </trkpt>
      <trkpt lat="47.24222" lon="-1.25961">
        <ele>73.1</ele>
        <time>2022-08-24T14:26:40Z</time>
      </trkpt>
      <trkpt lat="47.24189" lon="-1.26019">
        <ele>72.1</ele>
        <time>2022-08-24T14:26:46Z</time>
      </trkpt>
      <trkpt lat="47.24172" lon="-1.26063">
        <ele>71.8</ele>
        <time>2022-08-24T14:26:50Z</time>
      </trkpt>
      <trkpt lat="47.24182" lon="-1.26233">
        <ele>72.8</ele>
        <time>2022-08-24T14:27:04Z</time>
      </trkpt>
      <trkpt lat="47.24179" lon="-1.26267">
        <ele>72.9</ele>
        <time>2022-08-24T14:27:07Z</time>
      </trkpt>
      <trkpt lat="47.24167" lon="-1.26282">
        <ele>73</ele>
        <time>2022-08-24T14:27:09Z</time>
      </trkpt>
      <trkpt lat="47.2403" lon="-1.26294">
        <ele>74.8</ele>
        <time>2022-08-24T14:27:27Z</time>
      </trkpt>
      <trkpt lat="47.23893" lon="-1.2629">
        <ele>78.1</ele>
        <time>2022-08-24T14:27:46Z</time>
      </trkpt>
      <trkpt lat="47.23852" lon="-1.26308">
        <ele>78.7</ele>
        <time>2022-08-24T14:27:52Z</time>
      </trkpt>
      <trkpt lat="47.23836" lon="-1.26329">
        <ele>78.8</ele>
        <time>2022-08-24T14:27:55Z</time>
      </trkpt>
      <trkpt lat="47.23822" lon="-1.26381">
        <ele>79.1</ele>
        <time>2022-08-24T14:28:00Z</time>
      </trkpt>
      <trkpt lat="47.23804" lon="-1.26535">
        <ele>80.8</ele>
        <time>2022-08-24T14:28:14Z</time>
      </trkpt>
      <trkpt lat="47.2381" lon="-1.26649">
        <ele>81</ele>
        <time>2022-08-24T14:28:24Z</time>
      </trkpt>
      <trkpt lat="47.23835" lon="-1.26734">
        <ele>81.5</ele>
        <time>2022-08-24T14:28:32Z</time>
      </trkpt>
      <trkpt lat="47.2382" lon="-1.26786">
        <ele>82.2</ele>
        <time>2022-08-24T14:28:37Z</time>
      </trkpt>
      <trkpt lat="47.23835" lon="-1.26844">
        <ele>83.3</ele>
        <time>2022-08-24T14:28:43Z</time>
      </trkpt>
      <trkpt lat="47.23811" lon="-1.26973">
        <ele>85.7</ele>
        <time>2022-08-24T14:28:56Z</time>
      </trkpt>
      <trkpt lat="47.23796" lon="-1.27021">
        <ele>86</ele>
        <time>2022-08-24T14:29:01Z</time>
      </trkpt>
      <trkpt lat="47.23768" lon="-1.27073">
        <ele>86.3</ele>
        <time>2022-08-24T14:29:07Z</time>
      </trkpt>
      <trkpt lat="47.23723" lon="-1.27117">
        <ele>86.5</ele>
        <time>2022-08-24T14:29:14Z</time>
      </trkpt>
      <trkpt lat="47.23676" lon="-1.27132">
        <ele>86.6</ele>
        <time>2022-08-24T14:29:20Z</time>
      </trkpt>
      <trkpt lat="47.23531" lon="-1.27156">
        <ele>88.7</ele>
        <time>2022-08-24T14:29:39Z</time>
      </trkpt>
      <trkpt lat="47.2344" lon="-1.27163">
        <ele>90.1</ele>
        <time>2022-08-24T14:29:51Z</time>
      </trkpt>
      <trkpt lat="47.23379" lon="-1.2716">
        <ele>90.5</ele>
        <time>2022-08-24T14:29:59Z</time>
      </trkpt>
      <trkpt lat="47.23348" lon="-1.27167">
        <ele>90.6</ele>
        <time>2022-08-24T14:30:03Z</time>
      </trkpt>
      <trkpt lat="47.23169" lon="-1.27297">
        <ele>90.1</ele>
        <time>2022-08-24T14:30:27Z</time>
      </trkpt>
      <trkpt lat="47.23082" lon="-1.27412">
        <ele>89.2</ele>
        <time>2022-08-24T14:30:41Z</time>
      </trkpt>
      <trkpt lat="47.22983" lon="-1.27276">
        <ele>88.6</ele>
        <time>2022-08-24T14:30:57Z</time>
      </trkpt>
      <trkpt lat="47.22955" lon="-1.27229">
        <ele>88.4</ele>
        <time>2022-08-24T14:31:02Z</time>
      </trkpt>
      <trkpt lat="47.22786" lon="-1.26825">
        <ele>82.9</ele>
        <time>2022-08-24T14:31:39Z</time>
      </trkpt>
      <trkpt lat="47.22775" lon="-1.26808">
        <ele>82.7</ele>
        <time>2022-08-24T14:31:41Z</time>
      </trkpt>
      <trkpt lat="47.22771" lon="-1.26813">
        <ele>82.6</ele>
        <time>2022-08-24T14:31:42Z</time>
      </trkpt>
      <trkpt lat="47.22735" lon="-1.2693">
        <ele>81.4</ele>
        <time>2022-08-24T14:31:52Z</time>
      </trkpt>
      <trkpt lat="47.22701" lon="-1.26987">
        <ele>81.2</ele>
        <time>2022-08-24T14:31:58Z</time>
      </trkpt>
      <trkpt lat="47.22233" lon="-1.27642">
        <ele>87</ele>
        <time>2022-08-24T14:33:19Z</time>
      </trkpt>
      <trkpt lat="47.22129" lon="-1.27789">
        <ele>86.4</ele>
        <time>2022-08-24T14:33:37Z</time>
      </trkpt>
      <trkpt lat="47.2202" lon="-1.27951">
        <ele>88.2</ele>
        <time>2022-08-24T14:33:56Z</time>
      </trkpt>
      <trkpt lat="47.2188" lon="-1.28195">
        <ele>87.1</ele>
        <time>2022-08-24T14:34:22Z</time>
      </trkpt>
      <trkpt lat="47.2171" lon="-1.28609">
        <ele>86.9</ele>
        <time>2022-08-24T14:35:01Z</time>
      </trkpt>
      <trkpt lat="47.21441" lon="-1.28989">
        <ele>86.1</ele>
        <time>2022-08-24T14:35:45Z</time>
      </trkpt>
      <trkpt lat="47.21253" lon="-1.29316">
        <ele>81.8</ele>
        <time>2022-08-24T14:36:19Z</time>
      </trkpt>
      <trkpt lat="47.21152" lon="-1.29472">
        <ele>81.6</ele>
        <time>2022-08-24T14:36:36Z</time>
      </trkpt>
      <trkpt lat="47.20963" lon="-1.29727">
        <ele>78.5</ele>
        <time>2022-08-24T14:37:06Z</time>
      </trkpt>
      <trkpt lat="47.20808" lon="-1.29943">
        <ele>77.9</ele>
        <time>2022-08-24T14:37:31Z</time>
      </trkpt>
      <trkpt lat="47.20778" lon="-1.30004">
        <ele>77.5</ele>
        <time>2022-08-24T14:37:37Z</time>
      </trkpt>
      <trkpt lat="47.20712" lon="-1.30172">
        <ele>73.1</ele>
        <time>2022-08-24T14:37:52Z</time>
      </trkpt>
      <trkpt lat="47.20677" lon="-1.30249">
        <ele>72.2</ele>
        <time>2022-08-24T14:37:59Z</time>
      </trkpt>
      <trkpt lat="47.20616" lon="-1.3034">
        <ele>71.2</ele>
        <time>2022-08-24T14:38:09Z</time>
      </trkpt>
      <trkpt lat="47.20559" lon="-1.304">
        <ele>70.5</ele>
        <time>2022-08-24T14:38:17Z</time>
      </trkpt>
      <trkpt lat="47.20448" lon="-1.30548">
        <ele>66</ele>
        <time>2022-08-24T14:38:34Z</time>
      </trkpt>
      <trkpt lat="47.20447" lon="-1.30557">
        <ele>65.8</ele>
        <time>2022-08-24T14:38:35Z</time>
      </trkpt>
      <trkpt lat="47.20482" lon="-1.30598">
        <ele>65.2</ele>
        <time>2022-08-24T14:38:40Z</time>
      </trkpt>
      <trkpt lat="47.20496" lon="-1.30608">
        <ele>64.9</ele>
        <time>2022-08-24T14:38:42Z</time>
      </trkpt>
      <trkpt lat="47.20448" lon="-1.30736">
        <ele>62</ele>
        <time>2022-08-24T14:38:53Z</time>
      </trkpt>
      <trkpt lat="47.20376" lon="-1.30924">
        <ele>49.6</ele>
        <time>2022-08-24T14:39:08Z</time>
      </trkpt>
      <trkpt lat="47.20347" lon="-1.30986">
        <ele>47.2</ele>
        <time>2022-08-24T14:39:13Z</time>
      </trkpt>
      <trkpt lat="47.20293" lon="-1.31072">
        <ele>43.4</ele>
        <time>2022-08-24T14:39:21Z</time>
      </trkpt>
      <trkpt lat="47.20122" lon="-1.31312">
        <ele>34.4</ele>
        <time>2022-08-24T14:39:46Z</time>
      </trkpt>
      <trkpt lat="47.20105" lon="-1.31359">
        <ele>34</ele>
        <time>2022-08-24T14:39:50Z</time>
      </trkpt>
      <trkpt lat="47.20071" lon="-1.31517">
        <ele>34.7</ele>
        <time>2022-08-24T14:40:03Z</time>
      </trkpt>
      <trkpt lat="47.20034" lon="-1.316">
        <ele>34.2</ele>
        <time>2022-08-24T14:40:11Z</time>
      </trkpt>
      <trkpt lat="47.20024" lon="-1.31635">
        <ele>33.7</ele>
        <time>2022-08-24T14:40:14Z</time>
      </trkpt>
      <trkpt lat="47.19958" lon="-1.32047">
        <ele>25</ele>
        <time>2022-08-24T14:40:46Z</time>
      </trkpt>
      <trkpt lat="47.19919" lon="-1.32213">
        <ele>18.7</ele>
        <time>2022-08-24T14:40:59Z</time>
      </trkpt>
      <trkpt lat="47.19858" lon="-1.32392">
        <ele>16.1</ele>
        <time>2022-08-24T14:41:14Z</time>
      </trkpt>
      <trkpt lat="47.19776" lon="-1.32644">
        <ele>16.5</ele>
        <time>2022-08-24T14:41:36Z</time>
      </trkpt>
      <trkpt lat="47.19722" lon="-1.32815">
        <ele>14.3</ele>
        <time>2022-08-24T14:41:51Z</time>
      </trkpt>
      <trkpt lat="47.19715" lon="-1.32891">
        <ele>13.8</ele>
        <time>2022-08-24T14:41:57Z</time>
      </trkpt>
      <trkpt lat="47.19717" lon="-1.32941">
        <ele>13.5</ele>
        <time>2022-08-24T14:42:01Z</time>
      </trkpt>
      <trkpt lat="47.19747" lon="-1.33125">
        <ele>12.8</ele>
        <time>2022-08-24T14:42:16Z</time>
      </trkpt>
      <trkpt lat="47.1974" lon="-1.33211">
        <ele>12.7</ele>
        <time>2022-08-24T14:42:23Z</time>
      </trkpt>
      <trkpt lat="47.19728" lon="-1.33284">
        <ele>12.5</ele>
        <time>2022-08-24T14:42:29Z</time>
      </trkpt>
      <trkpt lat="47.19582" lon="-1.33743">
        <ele>8.9</ele>
        <time>2022-08-24T14:43:09Z</time>
      </trkpt>
      <trkpt lat="47.19555" lon="-1.33848">
        <ele>8.5</ele>
        <time>2022-08-24T14:43:18Z</time>
      </trkpt>
      <trkpt lat="47.19551" lon="-1.33898">
        <ele>8.5</ele>
        <time>2022-08-24T14:43:22Z</time>
      </trkpt>
      <trkpt lat="47.19554" lon="-1.3396">
        <ele>8.4</ele>
        <time>2022-08-24T14:43:27Z</time>
      </trkpt>
      <trkpt lat="47.19593" lon="-1.34404">
        <ele>8</ele>
        <time>2022-08-24T14:44:03Z</time>
      </trkpt>
      <trkpt lat="47.19612" lon="-1.34664">
        <ele>5.9</ele>
        <time>2022-08-24T14:44:24Z</time>
      </trkpt>
      <trkpt lat="47.19744" lon="-1.34751">
        <ele>5</ele>
        <time>2022-08-24T14:44:41Z</time>
      </trkpt>
      <trkpt lat="47.19778" lon="-1.34761">
        <ele>4.9</ele>
        <time>2022-08-24T14:44:45Z</time>
      </trkpt>
      <trkpt lat="47.19919" lon="-1.3476">
        <ele>5.4</ele>
        <time>2022-08-24T14:45:02Z</time>
      </trkpt>
      <trkpt lat="47.19952" lon="-1.34768">
        <ele>5.4</ele>
        <time>2022-08-24T14:45:06Z</time>
      </trkpt>
      <trkpt lat="47.20077" lon="-1.34842">
        <ele>4.3</ele>
        <time>2022-08-24T14:45:22Z</time>
      </trkpt>
      <trkpt lat="47.20118" lon="-1.34857">
        <ele>4.4</ele>
        <time>2022-08-24T14:45:27Z</time>
      </trkpt>
      <trkpt lat="47.2016" lon="-1.3486">
        <ele>4.7</ele>
        <time>2022-08-24T14:45:32Z</time>
      </trkpt>
      <trkpt lat="47.20191" lon="-1.34852">
        <ele>5.3</ele>
        <time>2022-08-24T14:45:36Z</time>
      </trkpt>
      <trkpt lat="47.20314" lon="-1.34799">
        <ele>5.9</ele>
        <time>2022-08-24T14:45:52Z</time>
      </trkpt>
      <trkpt lat="47.2037" lon="-1.34781">
        <ele>5.6</ele>
        <time>2022-08-24T14:45:59Z</time>
      </trkpt>
      <trkpt lat="47.20499" lon="-1.34784">
        <ele>6.9</ele>
        <time>2022-08-24T14:46:15Z</time>
      </trkpt>
      <trkpt lat="47.20587" lon="-1.34795">
        <ele>7.3</ele>
        <time>2022-08-24T14:46:26Z</time>
      </trkpt>
      <trkpt lat="47.20648" lon="-1.34832">
        <ele>7</ele>
        <time>2022-08-24T14:46:34Z</time>
      </trkpt>
      <trkpt lat="47.20718" lon="-1.34899">
        <ele>6</ele>
        <time>2022-08-24T14:46:44Z</time>
      </trkpt>
      <trkpt lat="47.20852" lon="-1.35029">
        <ele>8.3</ele>
        <time>2022-08-24T14:47:04Z</time>
      </trkpt>
      <trkpt lat="47.2088" lon="-1.3507">
        <ele>8.5</ele>
        <time>2022-08-24T14:47:09Z</time>
      </trkpt>
      <trkpt lat="47.20979" lon="-1.35287">
        <ele>9.1</ele>
        <time>2022-08-24T14:47:31Z</time>
      </trkpt>
      <trkpt lat="47.21024" lon="-1.3534">
        <ele>8.9</ele>
        <time>2022-08-24T14:47:38Z</time>
      </trkpt>
      <trkpt lat="47.21081" lon="-1.35362">
        <ele>8.8</ele>
        <time>2022-08-24T14:47:45Z</time>
      </trkpt>
      <trkpt lat="47.21212" lon="-1.35396">
        <ele>9.1</ele>
        <time>2022-08-24T14:48:01Z</time>
      </trkpt>
      <trkpt lat="47.2125" lon="-1.3542">
        <ele>9</ele>
        <time>2022-08-24T14:48:06Z</time>
      </trkpt>
      <trkpt lat="47.21256" lon="-1.35427">
        <ele>8.9</ele>
        <time>2022-08-24T14:48:07Z</time>
      </trkpt>
      <trkpt lat="47.21257" lon="-1.35437">
        <ele>8.9</ele>
        <time>2022-08-24T14:48:08Z</time>
      </trkpt>
      <trkpt lat="47.21241" lon="-1.35521">
        <ele>8.5</ele>
        <time>2022-08-24T14:48:15Z</time>
      </trkpt>
      <trkpt lat="47.21225" lon="-1.35579">
        <ele>8.1</ele>
        <time>2022-08-24T14:48:20Z</time>
      </trkpt>
      <trkpt lat="47.21125" lon="-1.35783">
        <ele>5.8</ele>
        <time>2022-08-24T14:48:40Z</time>
      </trkpt>
      <trkpt lat="47.21025" lon="-1.36087">
        <ele>5.4</ele>
        <time>2022-08-24T14:49:07Z</time>
      </trkpt>
      <trkpt lat="47.20956" lon="-1.36213">
        <ele>5.8</ele>
        <time>2022-08-24T14:49:20Z</time>
      </trkpt>
      <trkpt lat="47.20891" lon="-1.36415">
        <ele>3.9</ele>
        <time>2022-08-24T14:49:38Z</time>
      </trkpt>
      <trkpt lat="47.20832" lon="-1.36646">
        <ele>6.5</ele>
        <time>2022-08-24T14:49:58Z</time>
      </trkpt>
      <trkpt lat="47.20791" lon="-1.36809">
        <ele>3.7</ele>
        <time>2022-08-24T14:50:12Z</time>
      </trkpt>
      <trkpt lat="47.20726" lon="-1.37066">
        <ele>4.9</ele>
        <time>2022-08-24T14:50:34Z</time>
      </trkpt>
      <trkpt lat="47.20682" lon="-1.37241">
        <ele>3.2</ele>
        <time>2022-08-24T14:50:49Z</time>
      </trkpt>
      <trkpt lat="47.20629" lon="-1.37476">
        <ele>3.7</ele>
        <time>2022-08-24T14:51:09Z</time>
      </trkpt>
      <trkpt lat="47.20595" lon="-1.37869">
        <ele>4.9</ele>
        <time>2022-08-24T14:51:42Z</time>
      </trkpt>
      <trkpt lat="47.20575" lon="-1.38046">
        <ele>5.6</ele>
        <time>2022-08-24T14:51:57Z</time>
      </trkpt>
      <trkpt lat="47.20554" lon="-1.38176">
        <ele>5.2</ele>
        <time>2022-08-24T14:52:08Z</time>
      </trkpt>
      <trkpt lat="47.20471" lon="-1.38373">
        <ele>5.9</ele>
        <time>2022-08-24T14:52:27Z</time>
      </trkpt>
      <trkpt lat="47.20449" lon="-1.38438">
        <ele>5.8</ele>
        <time>2022-08-24T14:52:33Z</time>
      </trkpt>
      <trkpt lat="47.20442" lon="-1.38473">
        <ele>5.7</ele>
        <time>2022-08-24T14:52:36Z</time>
      </trkpt>
      <trkpt lat="47.2035" lon="-1.38553">
        <ele>6</ele>
        <time>2022-08-24T14:52:49Z</time>
      </trkpt>
      <trkpt lat="47.20246" lon="-1.38614">
        <ele>6.9</ele>
        <time>2022-08-24T14:53:03Z</time>
      </trkpt>
      <trkpt lat="47.20105" lon="-1.38736">
        <ele>10.2</ele>
        <time>2022-08-24T14:53:25Z</time>
      </trkpt>
      <trkpt lat="47.20037" lon="-1.38776">
        <ele>11.4</ele>
        <time>2022-08-24T14:53:35Z</time>
      </trkpt>
      <trkpt lat="47.20006" lon="-1.38804">
        <ele>11.8</ele>
        <time>2022-08-24T14:53:40Z</time>
      </trkpt>
      <trkpt lat="47.19976" lon="-1.38841">
        <ele>11.9</ele>
        <time>2022-08-24T14:53:45Z</time>
      </trkpt>
      <trkpt lat="47.19831" lon="-1.3907">
        <ele>13.5</ele>
        <time>2022-08-24T14:54:12Z</time>
      </trkpt>
      <trkpt lat="47.19755" lon="-1.39217">
        <ele>14.8</ele>
        <time>2022-08-24T14:54:28Z</time>
      </trkpt>
      <trkpt lat="47.19706" lon="-1.39292">
        <ele>15</ele>
        <time>2022-08-24T14:54:37Z</time>
      </trkpt>
      <trkpt lat="47.19585" lon="-1.39413">
        <ele>18.4</ele>
        <time>2022-08-24T14:54:57Z</time>
      </trkpt>
      <trkpt lat="47.19508" lon="-1.39458">
        <ele>20.7</ele>
        <time>2022-08-24T14:55:09Z</time>
      </trkpt>
      <trkpt lat="47.19456" lon="-1.39509">
        <ele>22</ele>
        <time>2022-08-24T14:55:18Z</time>
      </trkpt>
      <trkpt lat="47.19247" lon="-1.39748">
        <ele>24.7</ele>
        <time>2022-08-24T14:55:53Z</time>
      </trkpt>
      <trkpt lat="47.19184" lon="-1.3987">
        <ele>25</ele>
        <time>2022-08-24T14:56:06Z</time>
      </trkpt>
      <trkpt lat="47.19109" lon="-1.39983">
        <ele>25</ele>
        <time>2022-08-24T14:56:19Z</time>
      </trkpt>
      <trkpt lat="47.19076" lon="-1.40097">
        <ele>24.5</ele>
        <time>2022-08-24T14:56:29Z</time>
      </trkpt>
      <trkpt lat="47.19075" lon="-1.40109">
        <ele>24.4</ele>
        <time>2022-08-24T14:56:30Z</time>
      </trkpt>
      <trkpt lat="47.19131" lon="-1.40254">
        <ele>21.4</ele>
        <time>2022-08-24T14:56:43Z</time>
      </trkpt>
      <trkpt lat="47.19191" lon="-1.40433">
        <ele>15.6</ele>
        <time>2022-08-24T14:56:58Z</time>
      </trkpt>
      <trkpt lat="47.19228" lon="-1.40646">
        <ele>14.5</ele>
        <time>2022-08-24T14:57:15Z</time>
      </trkpt>
      <trkpt lat="47.19252" lon="-1.40782">
        <ele>17.5</ele>
        <time>2022-08-24T14:57:27Z</time>
      </trkpt>
      <trkpt lat="47.19261" lon="-1.4088">
        <ele>18.3</ele>
        <time>2022-08-24T14:57:36Z</time>
      </trkpt>
      <trkpt lat="47.19262" lon="-1.41008">
        <ele>18.2</ele>
        <time>2022-08-24T14:57:47Z</time>
      </trkpt>
      <trkpt lat="47.1927" lon="-1.41041">
        <ele>18.3</ele>
        <time>2022-08-24T14:57:50Z</time>
      </trkpt>
      <trkpt lat="47.19428" lon="-1.41356">
        <ele>21.4</ele>
        <time>2022-08-24T14:58:24Z</time>
      </trkpt>
      <trkpt lat="47.19563" lon="-1.41503">
        <ele>22.2</ele>
        <time>2022-08-24T14:58:45Z</time>
      </trkpt>
      <trkpt lat="47.1963" lon="-1.41644">
        <ele>20.4</ele>
        <time>2022-08-24T14:58:59Z</time>
      </trkpt>
      <trkpt lat="47.19735" lon="-1.41862">
        <ele>23.6</ele>
        <time>2022-08-24T14:59:22Z</time>
      </trkpt>
      <trkpt lat="47.19809" lon="-1.4198">
        <ele>26.1</ele>
        <time>2022-08-24T14:59:37Z</time>
      </trkpt>
      <trkpt lat="47.19833" lon="-1.42046">
        <ele>26.7</ele>
        <time>2022-08-24T14:59:44Z</time>
      </trkpt>
      <trkpt lat="47.19837" lon="-1.42111">
        <ele>27.1</ele>
        <time>2022-08-24T14:59:50Z</time>
      </trkpt>
      <trkpt lat="47.19822" lon="-1.4232">
        <ele>30.4</ele>
        <time>2022-08-24T15:00:10Z</time>
      </trkpt>
      <trkpt lat="47.1983" lon="-1.425">
        <ele>31.1</ele>
        <time>2022-08-24T15:00:26Z</time>
      </trkpt>
      <trkpt lat="47.19841" lon="-1.42596">
        <ele>30.7</ele>
        <time>2022-08-24T15:00:34Z</time>
      </trkpt>
      <trkpt lat="47.1985" lon="-1.42721">
        <ele>28.3</ele>
        <time>2022-08-24T15:00:44Z</time>
      </trkpt>
      <trkpt lat="47.19859" lon="-1.42785">
        <ele>27</ele>
        <time>2022-08-24T15:00:49Z</time>
      </trkpt>
      <trkpt lat="47.19883" lon="-1.4287">
        <ele>25.2</ele>
        <time>2022-08-24T15:00:56Z</time>
      </trkpt>
      <trkpt lat="47.19892" lon="-1.42919">
        <ele>23.6</ele>
        <time>2022-08-24T15:01:00Z</time>
      </trkpt>
      <trkpt lat="47.19896" lon="-1.42927">
        <ele>23.3</ele>
        <time>2022-08-24T15:01:01Z</time>
      </trkpt>
      <trkpt lat="47.19917" lon="-1.42927">
        <ele>22.4</ele>
        <time>2022-08-24T15:01:04Z</time>
      </trkpt>
      <trkpt lat="47.19922" lon="-1.42966">
        <ele>21.3</ele>
        <time>2022-08-24T15:01:08Z</time>
      </trkpt>
      <trkpt lat="47.19915" lon="-1.43011">
        <ele>20.4</ele>
        <time>2022-08-24T15:01:13Z</time>
      </trkpt>
      <trkpt lat="47.19891" lon="-1.43017">
        <ele>19.9</ele>
        <time>2022-08-24T15:01:18Z</time>
      </trkpt>
      <trkpt lat="47.19885" lon="-1.43042">
        <ele>19.7</ele>
        <time>2022-08-24T15:01:21Z</time>
      </trkpt>
      <trkpt lat="47.19889" lon="-1.43105">
        <ele>19.6</ele>
        <time>2022-08-24T15:01:27Z</time>
      </trkpt>
      <trkpt lat="47.19901" lon="-1.43168">
        <ele>20.4</ele>
        <time>2022-08-24T15:01:33Z</time>
      </trkpt>
      <trkpt lat="47.1991" lon="-1.43279">
        <ele>22.9</ele>
        <time>2022-08-24T15:01:44Z</time>
      </trkpt>
      <trkpt lat="47.1992" lon="-1.4331">
        <ele>23.6</ele>
        <time>2022-08-24T15:01:48Z</time>
      </trkpt>
      <trkpt lat="47.19915" lon="-1.4332">
        <ele>23.9</ele>
        <time>2022-08-24T15:01:50Z</time>
      </trkpt>
      <trkpt lat="47.19905" lon="-1.43324">
        <ele>24.4</ele>
        <time>2022-08-24T15:01:52Z</time>
      </trkpt>
      <trkpt lat="47.19866" lon="-1.43493">
        <ele>29.5</ele>
        <time>2022-08-24T15:02:13Z</time>
      </trkpt>
      <trkpt lat="47.19861" lon="-1.43539">
        <ele>29.9</ele>
        <time>2022-08-24T15:02:18Z</time>
      </trkpt>
      <trkpt lat="47.19862" lon="-1.43614">
        <ele>29.3</ele>
        <time>2022-08-24T15:02:25Z</time>
      </trkpt>
      <trkpt lat="47.19891" lon="-1.43751">
        <ele>27.8</ele>
        <time>2022-08-24T15:02:37Z</time>
      </trkpt>
      <trkpt lat="47.19913" lon="-1.43811">
        <ele>27.5</ele>
        <time>2022-08-24T15:02:44Z</time>
      </trkpt>
      <trkpt lat="47.19927" lon="-1.43818">
        <ele>27.4</ele>
        <time>2022-08-24T15:02:47Z</time>
      </trkpt>
      <trkpt lat="47.19925" lon="-1.43844">
        <ele>27.4</ele>
        <time>2022-08-24T15:02:51Z</time>
      </trkpt>
      <trkpt lat="47.19951" lon="-1.43913">
        <ele>27.3</ele>
        <time>2022-08-24T15:02:59Z</time>
      </trkpt>
      <trkpt lat="47.19966" lon="-1.43966">
        <ele>26.9</ele>
        <time>2022-08-24T15:03:04Z</time>
      </trkpt>
      <trkpt lat="47.19998" lon="-1.44125">
        <ele>24.2</ele>
        <time>2022-08-24T15:03:19Z</time>
      </trkpt>
      <trkpt lat="47.19997" lon="-1.44154">
        <ele>23.9</ele>
        <time>2022-08-24T15:03:22Z</time>
      </trkpt>
      <trkpt lat="47.20003" lon="-1.44184">
        <ele>23.7</ele>
        <time>2022-08-24T15:03:25Z</time>
      </trkpt>
      <trkpt lat="47.20035" lon="-1.44315">
        <ele>22.9</ele>
        <time>2022-08-24T15:03:37Z</time>
      </trkpt>
      <trkpt lat="47.20045" lon="-1.44407">
        <ele>22.5</ele>
        <time>2022-08-24T15:03:47Z</time>
      </trkpt>
      <trkpt lat="47.20052" lon="-1.4442">
        <ele>22.4</ele>
        <time>2022-08-24T15:03:50Z</time>
      </trkpt>
      <trkpt lat="47.20051" lon="-1.44442">
        <ele>22.3</ele>
        <time>2022-08-24T15:03:53Z</time>
      </trkpt>
      <trkpt lat="47.20066" lon="-1.44484">
        <ele>21.6</ele>
        <time>2022-08-24T15:03:58Z</time>
      </trkpt>
      <trkpt lat="47.20128" lon="-1.44593">
        <ele>17.2</ele>
        <time>2022-08-24T15:04:10Z</time>
      </trkpt>
      <trkpt lat="47.20145" lon="-1.44638">
        <ele>16.2</ele>
        <time>2022-08-24T15:04:14Z</time>
      </trkpt>
      <trkpt lat="47.2015" lon="-1.44676">
        <ele>15.9</ele>
        <time>2022-08-24T15:04:17Z</time>
      </trkpt>
      <trkpt lat="47.20147" lon="-1.44699">
        <ele>15.8</ele>
        <time>2022-08-24T15:04:19Z</time>
      </trkpt>
      <trkpt lat="47.20139" lon="-1.44719">
        <ele>15.7</ele>
        <time>2022-08-24T15:04:21Z</time>
      </trkpt>
      <trkpt lat="47.20137" lon="-1.4475">
        <ele>15.6</ele>
        <time>2022-08-24T15:04:24Z</time>
      </trkpt>
      <trkpt lat="47.20111" lon="-1.44807">
        <ele>15.9</ele>
        <time>2022-08-24T15:04:30Z</time>
      </trkpt>
      <trkpt lat="47.20035" lon="-1.44931">
        <ele>20.2</ele>
        <time>2022-08-24T15:04:47Z</time>
      </trkpt>
      <trkpt lat="47.20015" lon="-1.44974">
        <ele>22.2</ele>
        <time>2022-08-24T15:04:53Z</time>
      </trkpt>
      <trkpt lat="47.20001" lon="-1.45019">
        <ele>23.8</ele>
        <time>2022-08-24T15:04:59Z</time>
      </trkpt>
      <trkpt lat="47.19977" lon="-1.45037">
        <ele>25.1</ele>
        <time>2022-08-24T15:05:04Z</time>
      </trkpt>
      <trkpt lat="47.19949" lon="-1.4508">
        <ele>26.8</ele>
        <time>2022-08-24T15:05:11Z</time>
      </trkpt>
      <trkpt lat="47.19917" lon="-1.45148">
        <ele>28.4</ele>
        <time>2022-08-24T15:05:20Z</time>
      </trkpt>
      <trkpt lat="47.19843" lon="-1.45303">
        <ele>28.3</ele>
        <time>2022-08-24T15:05:37Z</time>
      </trkpt>
      <trkpt lat="47.1982" lon="-1.45364">
        <ele>28.7</ele>
        <time>2022-08-24T15:05:43Z</time>
      </trkpt>
      <trkpt lat="47.19819" lon="-1.45392">
        <ele>28.8</ele>
        <time>2022-08-24T15:05:46Z</time>
      </trkpt>
      <trkpt lat="47.19803" lon="-1.45407">
        <ele>28.9</ele>
        <time>2022-08-24T15:05:49Z</time>
      </trkpt>
      <trkpt lat="47.19772" lon="-1.45454">
        <ele>28.8</ele>
        <time>2022-08-24T15:05:55Z</time>
      </trkpt>
      <trkpt lat="47.19641" lon="-1.45729">
        <ele>23.8</ele>
        <time>2022-08-24T15:06:22Z</time>
      </trkpt>
      <trkpt lat="47.19563" lon="-1.45893">
        <ele>23.5</ele>
        <time>2022-08-24T15:06:38Z</time>
      </trkpt>
      <trkpt lat="47.19402" lon="-1.4623">
        <ele>30.5</ele>
        <time>2022-08-24T15:07:16Z</time>
      </trkpt>
      <trkpt lat="47.1938" lon="-1.46291">
        <ele>31</ele>
        <time>2022-08-24T15:07:23Z</time>
      </trkpt>
      <trkpt lat="47.19376" lon="-1.46314">
        <ele>31.1</ele>
        <time>2022-08-24T15:07:26Z</time>
      </trkpt>
      <trkpt lat="47.19361" lon="-1.46324">
        <ele>31.2</ele>
        <time>2022-08-24T15:07:29Z</time>
      </trkpt>
      <trkpt lat="47.19322" lon="-1.46395">
        <ele>31.7</ele>
        <time>2022-08-24T15:07:38Z</time>
      </trkpt>
      <trkpt lat="47.19047" lon="-1.46976">
        <ele>29</ele>
        <time>2022-08-24T15:08:36Z</time>
      </trkpt>
      <trkpt lat="47.18984" lon="-1.4711">
        <ele>33.3</ele>
        <time>2022-08-24T15:08:50Z</time>
      </trkpt>
      <trkpt lat="47.18959" lon="-1.47186">
        <ele>33.8</ele>
        <time>2022-08-24T15:08:58Z</time>
      </trkpt>
      <trkpt lat="47.18956" lon="-1.47213">
        <ele>33.7</ele>
        <time>2022-08-24T15:09:01Z</time>
      </trkpt>
      <trkpt lat="47.1894" lon="-1.47227">
        <ele>33.6</ele>
        <time>2022-08-24T15:09:04Z</time>
      </trkpt>
      <trkpt lat="47.18907" lon="-1.4727">
        <ele>33.5</ele>
        <time>2022-08-24T15:09:10Z</time>
      </trkpt>
      <trkpt lat="47.18716" lon="-1.47675">
        <ele>30.9</ele>
        <time>2022-08-24T15:09:50Z</time>
      </trkpt>
      <trkpt lat="47.18699" lon="-1.477">
        <ele>30.9</ele>
        <time>2022-08-24T15:09:53Z</time>
      </trkpt>
      <trkpt lat="47.18714" lon="-1.47955">
        <ele>34</ele>
        <time>2022-08-24T15:10:15Z</time>
      </trkpt>
      <trkpt lat="47.18741" lon="-1.48295">
        <ele>31.9</ele>
        <time>2022-08-24T15:10:43Z</time>
      </trkpt>
      <trkpt lat="47.18762" lon="-1.48655">
        <ele>31.4</ele>
        <time>2022-08-24T15:11:12Z</time>
      </trkpt>
      <trkpt lat="47.18826" lon="-1.49514">
        <ele>28.3</ele>
        <time>2022-08-24T15:12:21Z</time>
      </trkpt>
      <trkpt lat="47.1883" lon="-1.49651">
        <ele>27.1</ele>
        <time>2022-08-24T15:12:32Z</time>
      </trkpt>
      <trkpt lat="47.18905" lon="-1.50825">
        <ele>26.7</ele>
        <time>2022-08-24T15:14:07Z</time>
      </trkpt>
      <trkpt lat="47.18973" lon="-1.51763">
        <ele>25.3</ele>
        <time>2022-08-24T15:15:23Z</time>
      </trkpt>
      <trkpt lat="47.18971" lon="-1.51799">
        <ele>25.3</ele>
        <time>2022-08-24T15:15:26Z</time>
      </trkpt>
      <trkpt lat="47.1898" lon="-1.51882">
        <ele>25.6</ele>
        <time>2022-08-24T15:15:33Z</time>
      </trkpt>
      <trkpt lat="47.19006" lon="-1.51986">
        <ele>25.2</ele>
        <time>2022-08-24T15:15:42Z</time>
      </trkpt>
      <trkpt lat="47.19059" lon="-1.52145">
        <ele>22.6</ele>
        <time>2022-08-24T15:15:56Z</time>
      </trkpt>
      <trkpt lat="47.19131" lon="-1.52357">
        <ele>22.4</ele>
        <time>2022-08-24T15:16:15Z</time>
      </trkpt>
      <trkpt lat="47.19091" lon="-1.52231">
        <ele>21.4</ele>
        <time>2022-08-24T15:16:27Z</time>
      </trkpt>
      <trkpt lat="47.19091" lon="-1.52222">
        <ele>21.3</ele>
        <time>2022-08-24T15:16:28Z</time>
      </trkpt>
      <trkpt lat="47.19112" lon="-1.52202">
        <ele>21.1</ele>
        <time>2022-08-24T15:16:31Z</time>
      </trkpt>
      <trkpt lat="47.19117" lon="-1.52185">
        <ele>21.1</ele>
        <time>2022-08-24T15:16:33Z</time>
      </trkpt>
      <trkpt lat="47.1911" lon="-1.52207">
        <ele>21.2</ele>
        <time>2022-08-24T15:16:35Z</time>
      </trkpt>
      <trkpt lat="47.19089" lon="-1.52225">
        <ele>21.3</ele>
        <time>2022-08-24T15:16:38Z</time>
      </trkpt>
      <trkpt lat="47.19092" lon="-1.52236">
        <ele>21.4</ele>
        <time>2022-08-24T15:16:39Z</time>
      </trkpt>
      <trkpt lat="47.19176" lon="-1.52479">
        <ele>21.5</ele>
        <time>2022-08-24T15:17:01Z</time>
      </trkpt>
      <trkpt lat="47.19245" lon="-1.52684">
        <ele>17.1</ele>
        <time>2022-08-24T15:17:21Z</time>
      </trkpt>
      <trkpt lat="47.19257" lon="-1.52708">
        <ele>16.7</ele>
        <time>2022-08-24T15:17:25Z</time>
      </trkpt>
      <trkpt lat="47.19258" lon="-1.52724">
        <ele>16.6</ele>
        <time>2022-08-24T15:17:27Z</time>
      </trkpt>
      <trkpt lat="47.19322" lon="-1.52914">
        <ele>16.2</ele>
        <time>2022-08-24T15:17:46Z</time>
      </trkpt>
      <trkpt lat="47.19362" lon="-1.53049">
        <ele>15.7</ele>
        <time>2022-08-24T15:17:58Z</time>
      </trkpt>
      <trkpt lat="47.19424" lon="-1.53227">
        <ele>14.1</ele>
        <time>2022-08-24T15:18:14Z</time>
      </trkpt>
      <trkpt lat="47.1953" lon="-1.53508">
        <ele>17.7</ele>
        <time>2022-08-24T15:18:41Z</time>
      </trkpt>
      <trkpt lat="47.19631" lon="-1.53843">
        <ele>16.8</ele>
        <time>2022-08-24T15:19:11Z</time>
      </trkpt>
      <trkpt lat="47.19689" lon="-1.53986">
        <ele>12.9</ele>
        <time>2022-08-24T15:19:24Z</time>
      </trkpt>
      <trkpt lat="47.19713" lon="-1.54023">
        <ele>12.3</ele>
        <time>2022-08-24T15:19:28Z</time>
      </trkpt>
      <trkpt lat="47.19721" lon="-1.54046">
        <ele>12.2</ele>
        <time>2022-08-24T15:19:30Z</time>
      </trkpt>
      <trkpt lat="47.19748" lon="-1.54097">
        <ele>11</ele>
        <time>2022-08-24T15:19:35Z</time>
      </trkpt>
      <trkpt lat="47.19787" lon="-1.5412">
        <ele>9.9</ele>
        <time>2022-08-24T15:19:40Z</time>
      </trkpt>
      <trkpt lat="47.19809" lon="-1.54117">
        <ele>9.3</ele>
        <time>2022-08-24T15:19:43Z</time>
      </trkpt>
      <trkpt lat="47.19824" lon="-1.54135">
        <ele>8.7</ele>
        <time>2022-08-24T15:19:46Z</time>
      </trkpt>
      <trkpt lat="47.19801" lon="-1.5422">
        <ele>7.3</ele>
        <time>2022-08-24T15:19:55Z</time>
      </trkpt>
      <trkpt lat="47.19807" lon="-1.54252">
        <ele>6.5</ele>
        <time>2022-08-24T15:19:58Z</time>
      </trkpt>
      <trkpt lat="47.1988" lon="-1.54307">
        <ele>4.1</ele>
        <time>2022-08-24T15:20:08Z</time>
      </trkpt>
      <trkpt lat="47.20022" lon="-1.54402">
        <ele>7.9</ele>
        <time>2022-08-24T15:20:28Z</time>
      </trkpt>
      <trkpt lat="47.20037" lon="-1.54423">
        <ele>8.6</ele>
        <time>2022-08-24T15:20:31Z</time>
      </trkpt>
      <trkpt lat="47.20074" lon="-1.54445">
        <ele>10.2</ele>
        <time>2022-08-24T15:20:37Z</time>
      </trkpt>
      <trkpt lat="47.20079" lon="-1.54448">
        <ele>10.5</ele>
        <time>2022-08-24T15:20:38Z</time>
      </trkpt>
      <trkpt lat="47.20101" lon="-1.54439">
        <ele>11.4</ele>
        <time>2022-08-24T15:20:42Z</time>
      </trkpt>
      <trkpt lat="47.20156" lon="-1.54478">
        <ele>13.1</ele>
        <time>2022-08-24T15:20:51Z</time>
      </trkpt>
      <trkpt lat="47.20273" lon="-1.54559">
        <ele>9.1</ele>
        <time>2022-08-24T15:21:07Z</time>
      </trkpt>
      <trkpt lat="47.20423" lon="-1.54651">
        <ele>8.3</ele>
        <time>2022-08-24T15:21:26Z</time>
      </trkpt>
      <trkpt lat="47.20593" lon="-1.54763">
        <ele>10.3</ele>
        <time>2022-08-24T15:21:49Z</time>
      </trkpt>
      <trkpt lat="47.20597" lon="-1.54759">
        <ele>10.4</ele>
        <time>2022-08-24T15:21:50Z</time>
      </trkpt>
      <trkpt lat="47.20605" lon="-1.54681">
        <ele>11.3</ele>
        <time>2022-08-24T15:21:57Z</time>
      </trkpt>
    </trkseg>
  </trk>
</gpx>